SWR160 LSZH-RJAA
Flight info
| Callsign | SWR160 |
|---|---|
| Flight time | N/A |
| Altitude | 31000 |
| Route | DEGES Z2 UMVEG DCT DIMLO DCT INVED DCT SOKRU DCT DINRO DCT UDROS UM859 KARDE UL851 TBN UM11 REBLO/N0485F330 M11 MATAL T916 LEYLA N161 GASBI/K0896F330 N161 GILAK/K0883F350 N161 SARIN/K0878S1010 A368 OSUPO/K0882S1070 A368 FKG W188 LIKMI W270 DKO W69 HUR B339 LADIX W34 VAPGU W100 MUDOT DCT UNSEK A326 DONVO G597 AGAVO/N0476F370 Y644 EGOBA Y697 LANAT Y51 SAMON Y517 ESKAS Y303 ENTAK/N0474F380 Y30 SWAMP |
| Aircraft | B77W/H-SDE1E2E3FGHIJ2J3J4J5M1RWXY/LB1D1 |
Departure
| Time | N/A |
|---|---|
| Airport | Zürich Airport (LSZH) |
Arrival
| Time | 2026-05-05 20:24 |
|---|---|
| Airport | Narita International Airport (RJAA) |
| Time | Latitude | Longitude | Altitude | Speed | Heading |
|---|---|---|---|---|---|
| 2026-05-05 09:23 | 45.01058 | 25.26306 | 31050 ft | 482 kts | 108° |
| 2026-05-05 09:24 | 44.98642 | 25.35160 | 31048 ft | 484 kts | 112° |
| 2026-05-05 09:24 | 44.95676 | 25.43705 | 31055 ft | 485 kts | 114° |
| 2026-05-05 09:25 | 44.92620 | 25.52192 | 31056 ft | 485 kts | 114° |
| 2026-05-05 09:25 | 44.89604 | 25.60647 | 31070 ft | 485 kts | 114° |
| 2026-05-05 09:26 | 44.86596 | 25.69150 | 31055 ft | 485 kts | 114° |
| 2026-05-05 09:26 | 44.83589 | 25.77656 | 31061 ft | 484 kts | 114° |
| 2026-05-05 09:27 | 44.80576 | 25.86149 | 31061 ft | 484 kts | 114° |
| 2026-05-05 09:27 | 44.77556 | 25.94632 | 31079 ft | 484 kts | 114° |
| 2026-05-05 09:28 | 44.74526 | 26.03112 | 31066 ft | 484 kts | 114° |
| 2026-05-05 09:28 | 44.71490 | 26.11581 | 31079 ft | 484 kts | 114° |
| 2026-05-05 09:29 | 44.68474 | 26.19974 | 31083 ft | 484 kts | 114° |
| 2026-05-05 09:29 | 44.65428 | 26.28419 | 31061 ft | 485 kts | 114° |
| 2026-05-05 09:30 | 44.62371 | 26.36870 | 31052 ft | 485 kts | 114° |
| 2026-05-05 09:30 | 44.59312 | 26.45302 | 31059 ft | 484 kts | 114° |
| 2026-05-05 09:31 | 44.56251 | 26.53713 | 31072 ft | 484 kts | 114° |
| 2026-05-05 09:31 | 44.53183 | 26.62115 | 31062 ft | 484 kts | 114° |
| 2026-05-05 09:32 | 44.50109 | 26.70509 | 31061 ft | 484 kts | 114° |
| 2026-05-05 09:32 | 44.47031 | 26.78888 | 31062 ft | 483 kts | 114° |
| 2026-05-05 09:33 | 44.43951 | 26.87250 | 31059 ft | 483 kts | 114° |
| 2026-05-05 09:33 | 44.40866 | 26.95597 | 31059 ft | 483 kts | 115° |
| 2026-05-05 09:34 | 44.37776 | 27.03934 | 31064 ft | 483 kts | 115° |
| 2026-05-05 09:34 | 44.34701 | 27.12205 | 31062 ft | 483 kts | 115° |
| 2026-05-05 09:35 | 44.31597 | 27.20529 | 31071 ft | 482 kts | 115° |
| 2026-05-05 09:35 | 44.26942 | 27.32969 | 31067 ft | 481 kts | 115° |
| 2026-05-05 09:36 | 44.23832 | 27.41246 | 31060 ft | 481 kts | 115° |
| 2026-05-05 09:36 | 44.20723 | 27.49495 | 31073 ft | 480 kts | 115° |
| 2026-05-05 09:37 | 44.17636 | 27.57664 | 31062 ft | 479 kts | 115° |
| 2026-05-05 09:37 | 44.14527 | 27.65864 | 31058 ft | 478 kts | 116° |
| 2026-05-05 09:38 | 44.11418 | 27.74043 | 31069 ft | 477 kts | 116° |
| 2026-05-05 09:38 | 44.08831 | 27.80823 | 31067 ft | 477 kts | 116° |
| 2026-05-05 09:39 | 44.05722 | 27.88960 | 31064 ft | 476 kts | 116° |
| 2026-05-05 09:39 | 44.02607 | 27.97095 | 31059 ft | 477 kts | 116° |
| 2026-05-05 09:40 | 43.99483 | 28.05230 | 31076 ft | 477 kts | 117° |
| 2026-05-05 09:40 | 43.96344 | 28.13367 | 31070 ft | 478 kts | 117° |
| 2026-05-05 09:41 | 43.93222 | 28.21440 | 31057 ft | 478 kts | 117° |
| 2026-05-05 09:41 | 43.90066 | 28.29578 | 31055 ft | 478 kts | 117° |
| 2026-05-05 09:42 | 43.86914 | 28.37690 | 31061 ft | 477 kts | 117° |
| 2026-05-05 09:42 | 43.83780 | 28.45720 | 31055 ft | 476 kts | 117° |
| 2026-05-05 09:43 | 43.80627 | 28.53784 | 31058 ft | 475 kts | 117° |
| 2026-05-05 09:43 | 43.77476 | 28.61821 | 31067 ft | 474 kts | 117° |
| 2026-05-05 09:44 | 43.74327 | 28.69827 | 31071 ft | 473 kts | 117° |
| 2026-05-05 09:44 | 43.71200 | 28.77765 | 31073 ft | 473 kts | 118° |
| 2026-05-05 09:45 | 43.67680 | 28.85432 | 31083 ft | 473 kts | 125° |
| 2026-05-05 09:45 | 43.63784 | 28.92769 | 31084 ft | 474 kts | 125° |
| 2026-05-05 09:46 | 43.59894 | 29.00116 | 31083 ft | 474 kts | 125° |
| 2026-05-05 09:46 | 43.56010 | 29.07486 | 31091 ft | 475 kts | 125° |
| 2026-05-05 09:47 | 43.52119 | 29.14876 | 31087 ft | 475 kts | 125° |
| 2026-05-05 09:47 | 43.48251 | 29.22198 | 31089 ft | 476 kts | 125° |
| 2026-05-05 09:48 | 43.44352 | 29.29575 | 31081 ft | 476 kts | 125° |
| 2026-05-05 09:48 | 43.40441 | 29.36951 | 31086 ft | 477 kts | 125° |
| 2026-05-05 09:49 | 43.36527 | 29.44300 | 31065 ft | 477 kts | 124° |
| 2026-05-05 09:49 | 43.32603 | 29.51659 | 31091 ft | 477 kts | 125° |
| 2026-05-05 09:50 | 43.28667 | 29.59017 | 31078 ft | 478 kts | 124° |
| 2026-05-05 09:50 | 43.24725 | 29.66375 | 31077 ft | 478 kts | 125° |
| 2026-05-05 09:51 | 43.20801 | 29.73680 | 31076 ft | 478 kts | 125° |
| 2026-05-05 09:51 | 43.16848 | 29.81009 | 31076 ft | 478 kts | 124° |
| 2026-05-05 09:52 | 43.12892 | 29.88347 | 31076 ft | 478 kts | 125° |
| 2026-05-05 09:52 | 43.08932 | 29.95660 | 31051 ft | 478 kts | 125° |
| 2026-05-05 09:53 | 43.04986 | 30.02924 | 31079 ft | 479 kts | 124° |
| 2026-05-05 09:53 | 43.01002 | 30.10243 | 31074 ft | 481 kts | 125° |
| 2026-05-05 09:54 | 42.97004 | 30.17580 | 31072 ft | 482 kts | 125° |
| 2026-05-05 09:54 | 42.92982 | 30.24935 | 31048 ft | 483 kts | 125° |
| 2026-05-05 09:55 | 42.88951 | 30.32302 | 31068 ft | 484 kts | 125° |
| 2026-05-05 09:55 | 42.84902 | 30.39664 | 31065 ft | 485 kts | 125° |
| 2026-05-05 09:56 | 42.80850 | 30.47020 | 31055 ft | 486 kts | 125° |
| 2026-05-05 09:56 | 42.76799 | 30.54388 | 31051 ft | 485 kts | 123° |
| 2026-05-05 09:57 | 42.73862 | 30.62497 | 31067 ft | 479 kts | 105° |
| 2026-05-05 09:57 | 42.72599 | 30.71333 | 31058 ft | 475 kts | 95° |
| 2026-05-05 09:58 | 42.71770 | 30.80257 | 31058 ft | 476 kts | 95° |
| 2026-05-05 09:58 | 42.70897 | 30.89184 | 31049 ft | 476 kts | 95° |
| 2026-05-05 09:59 | 42.69992 | 30.98055 | 31045 ft | 476 kts | 95° |
| 2026-05-05 09:59 | 42.69067 | 31.06971 | 31055 ft | 476 kts | 95° |
| 2026-05-05 10:00 | 42.68134 | 31.15891 | 31037 ft | 476 kts | 95° |
| 2026-05-05 10:00 | 42.67196 | 31.24796 | 31039 ft | 475 kts | 95° |
| 2026-05-05 10:01 | 42.66252 | 31.33710 | 31042 ft | 479 kts | 95° |
| 2026-05-05 10:01 | 42.65297 | 31.42660 | 31014 ft | 475 kts | 95° |
| 2026-05-05 10:02 | 42.64348 | 31.51476 | 31020 ft | 470 kts | 95° |
| 2026-05-05 10:02 | 42.63404 | 31.60182 | 31030 ft | 468 kts | 95° |
| 2026-05-05 10:03 | 42.62448 | 31.68941 | 31026 ft | 469 kts | 95° |
| 2026-05-05 10:03 | 42.61483 | 31.77716 | 31028 ft | 471 kts | 95° |
| 2026-05-05 10:04 | 42.60508 | 31.86523 | 31034 ft | 473 kts | 94° |
| 2026-05-05 10:04 | 42.59523 | 31.95362 | 31026 ft | 474 kts | 94° |
| 2026-05-05 10:05 | 42.58513 | 32.04210 | 31021 ft | 475 kts | 95° |
| 2026-05-05 10:05 | 42.57419 | 32.13049 | 31021 ft | 475 kts | 95° |
| 2026-05-05 10:06 | 42.56430 | 32.21841 | 31038 ft | 474 kts | 94° |
| 2026-05-05 10:06 | 42.55432 | 32.30692 | 31025 ft | 474 kts | 94° |
| 2026-05-05 10:07 | 42.54415 | 32.39520 | 31018 ft | 474 kts | 94° |
| 2026-05-05 10:07 | 42.53385 | 32.48346 | 31022 ft | 472 kts | 95° |
| 2026-05-05 10:08 | 42.52356 | 32.57094 | 31053 ft | 471 kts | 94° |
| 2026-05-05 10:08 | 42.51318 | 32.65862 | 31027 ft | 469 kts | 94° |
| 2026-05-05 10:09 | 42.50279 | 32.74590 | 31017 ft | 468 kts | 95° |
| 2026-05-05 10:09 | 42.49236 | 32.83289 | 31033 ft | 467 kts | 95° |
| 2026-05-05 10:10 | 42.48196 | 32.91910 | 31028 ft | 467 kts | 95° |
| 2026-05-05 10:10 | 42.47143 | 33.00588 | 31034 ft | 467 kts | 95° |
| 2026-05-05 10:11 | 42.46082 | 33.09281 | 31038 ft | 468 kts | 95° |
| 2026-05-05 10:11 | 42.45013 | 33.17990 | 31033 ft | 469 kts | 95° |
| 2026-05-05 10:12 | 42.43948 | 33.26706 | 31050 ft | 469 kts | 95° |
| 2026-05-05 10:12 | 42.42874 | 33.35444 | 31036 ft | 470 kts | 95° |
| 2026-05-05 10:13 | 42.41790 | 33.44182 | 31035 ft | 470 kts | 95° |
| 2026-05-05 10:13 | 42.40689 | 33.52828 | 31025 ft | 460 kts | 95° |
| 2026-05-05 10:14 | 42.39613 | 33.61295 | 31031 ft | 460 kts | 95° |
| 2026-05-05 10:14 | 42.38517 | 33.69854 | 31032 ft | 462 kts | 95° |
| 2026-05-05 10:15 | 42.37413 | 33.78407 | 31032 ft | 461 kts | 96° |
| 2026-05-05 10:15 | 42.36306 | 33.86946 | 31029 ft | 461 kts | 96° |
| 2026-05-05 10:16 | 42.35195 | 33.95476 | 31030 ft | 460 kts | 96° |
| 2026-05-05 10:16 | 42.34087 | 34.03950 | 31035 ft | 461 kts | 96° |
| 2026-05-05 10:17 | 42.32965 | 34.12488 | 31035 ft | 462 kts | 96° |
| 2026-05-05 10:17 | 42.31836 | 34.21036 | 31031 ft | 463 kts | 96° |
| 2026-05-05 10:18 | 42.30695 | 34.29616 | 31028 ft | 464 kts | 96° |
| 2026-05-05 10:18 | 42.29550 | 34.38185 | 31141 ft | 462 kts | 97° |
| 2026-05-05 10:19 | 42.28395 | 34.46683 | 31252 ft | 463 kts | 97° |
| 2026-05-05 10:19 | 42.27224 | 34.55183 | 31353 ft | 458 kts | 97° |
| 2026-05-05 10:20 | 42.26063 | 34.63616 | 31449 ft | 456 kts | 97° |
| 2026-05-05 10:20 | 42.24897 | 34.72026 | 31565 ft | 455 kts | 97° |
| 2026-05-05 10:21 | 42.23723 | 34.80453 | 31667 ft | 458 kts | 97° |
| 2026-05-05 10:21 | 42.22541 | 34.88920 | 31775 ft | 461 kts | 97° |
| 2026-05-05 10:22 | 42.21355 | 34.97388 | 31887 ft | 464 kts | 97° |
| 2026-05-05 10:22 | 42.20148 | 35.05963 | 32005 ft | 467 kts | 97° |
| 2026-05-05 10:23 | 42.18924 | 35.14606 | 32095 ft | 471 kts | 98° |
| 2026-05-05 10:23 | 42.17683 | 35.23318 | 32206 ft | 475 kts | 98° |
| 2026-05-05 10:24 | 42.16427 | 35.32085 | 32310 ft | 478 kts | 98° |
| 2026-05-05 10:24 | 42.15158 | 35.40900 | 32440 ft | 479 kts | 98° |
| 2026-05-05 10:25 | 42.13880 | 35.49738 | 32521 ft | 480 kts | 99° |
| 2026-05-05 10:25 | 42.12606 | 35.58519 | 32626 ft | 481 kts | 99° |
| 2026-05-05 10:26 | 42.11323 | 35.67354 | 32733 ft | 480 kts | 99° |
| 2026-05-05 10:26 | 42.10031 | 35.76164 | 32842 ft | 479 kts | 99° |
| 2026-05-05 10:27 | 42.08948 | 35.83477 | 32934 ft | 477 kts | 99° |
| 2026-05-05 10:27 | 42.07654 | 35.92259 | 33016 ft | 478 kts | 100° |
| 2026-05-05 10:28 | 42.06349 | 36.01049 | 33027 ft | 480 kts | 100° |
| 2026-05-05 10:28 | 42.05025 | 36.09881 | 33021 ft | 481 kts | 100° |
| 2026-05-05 10:29 | 42.03690 | 36.18710 | 33016 ft | 481 kts | 101° |
| 2026-05-05 10:29 | 42.02371 | 36.27460 | 33022 ft | 481 kts | 101° |
| 2026-05-05 10:30 | 42.01030 | 36.36268 | 33015 ft | 480 kts | 101° |
| 2026-05-05 10:30 | 41.99683 | 36.45061 | 33009 ft | 479 kts | 101° |
| 2026-05-05 10:31 | 41.98338 | 36.53823 | 33021 ft | 478 kts | 101° |
| 2026-05-05 10:31 | 41.96987 | 36.62551 | 33020 ft | 477 kts | 101° |
| 2026-05-05 10:32 | 41.95630 | 36.71264 | 33020 ft | 476 kts | 101° |
| 2026-05-05 10:32 | 41.94279 | 36.79915 | 33031 ft | 476 kts | 101° |
| 2026-05-05 10:33 | 41.92911 | 36.88627 | 33018 ft | 476 kts | 101° |
| 2026-05-05 10:33 | 41.91534 | 36.97356 | 33016 ft | 477 kts | 101° |
| 2026-05-05 10:34 | 41.89941 | 37.06013 | 33003 ft | 478 kts | 108° |
| 2026-05-05 10:34 | 41.87416 | 37.14228 | 33028 ft | 479 kts | 113° |
| 2026-05-05 10:35 | 41.84772 | 37.22468 | 33004 ft | 482 kts | 113° |
| 2026-05-05 10:35 | 41.82153 | 37.30738 | 33000 ft | 478 kts | 112° |
| 2026-05-05 10:36 | 41.79577 | 37.38896 | 33007 ft | 473 kts | 112° |
| 2026-05-05 10:36 | 41.77016 | 37.46989 | 33027 ft | 471 kts | 113° |
| 2026-05-05 10:37 | 41.74448 | 37.55072 | 33023 ft | 471 kts | 114° |
| 2026-05-05 10:37 | 41.71869 | 37.63166 | 33015 ft | 473 kts | 114° |
| 2026-05-05 10:38 | 41.69270 | 37.71283 | 33015 ft | 475 kts | 114° |
| 2026-05-05 10:38 | 41.66667 | 37.79363 | 33015 ft | 477 kts | 114° |
| 2026-05-05 10:39 | 41.64037 | 37.87520 | 33016 ft | 478 kts | 115° |
| 2026-05-05 10:39 | 41.61395 | 37.95689 | 33013 ft | 479 kts | 115° |
| 2026-05-05 10:40 | 41.58742 | 38.03871 | 33001 ft | 479 kts | 115° |
| 2026-05-05 10:40 | 41.56084 | 38.12038 | 33010 ft | 479 kts | 115° |
| 2026-05-05 10:41 | 41.53422 | 38.20202 | 33004 ft | 479 kts | 115° |
| 2026-05-05 10:41 | 41.50756 | 38.28345 | 33001 ft | 479 kts | 116° |
| 2026-05-05 10:42 | 41.46763 | 38.40497 | 33008 ft | 479 kts | 116° |
| 2026-05-05 10:43 | 41.44085 | 38.48614 | 33005 ft | 478 kts | 116° |
| 2026-05-05 10:43 | 41.41399 | 38.56739 | 32991 ft | 478 kts | 116° |
| 2026-05-05 10:44 | 41.38709 | 38.64851 | 33000 ft | 478 kts | 117° |
| 2026-05-05 10:44 | 41.36012 | 38.72962 | 33013 ft | 479 kts | 117° |
| 2026-05-05 10:45 | 41.33308 | 38.81081 | 33002 ft | 480 kts | 116° |
| 2026-05-05 10:45 | 41.30653 | 38.89181 | 32998 ft | 481 kts | 117° |
| 2026-05-05 10:46 | 41.27980 | 38.97348 | 33007 ft | 481 kts | 117° |
| 2026-05-05 10:46 | 41.25290 | 39.05526 | 33017 ft | 485 kts | 117° |
| 2026-05-05 10:47 | 41.22575 | 39.13748 | 32996 ft | 485 kts | 117° |
| 2026-05-05 10:47 | 41.19829 | 39.21914 | 33009 ft | 483 kts | 118° |
| 2026-05-05 10:48 | 41.16999 | 39.29977 | 33025 ft | 482 kts | 118° |
| 2026-05-05 10:48 | 41.14159 | 39.38038 | 33009 ft | 481 kts | 118° |
| 2026-05-05 10:49 | 41.11332 | 39.46088 | 33009 ft | 480 kts | 118° |
| 2026-05-05 10:49 | 41.08530 | 39.54059 | 33006 ft | 480 kts | 118° |
| 2026-05-05 10:50 | 41.05704 | 39.62079 | 33001 ft | 480 kts | 118° |
| 2026-05-05 10:50 | 41.02869 | 39.70101 | 32991 ft | 481 kts | 119° |
| 2026-05-05 10:51 | 41.00327 | 39.78311 | 32989 ft | 486 kts | 109° |
| 2026-05-05 10:51 | 40.99192 | 39.87214 | 32988 ft | 494 kts | 96° |
| 2026-05-05 10:52 | 40.99041 | 39.96310 | 32999 ft | 495 kts | 94° |
| 2026-05-05 10:52 | 40.98880 | 40.05429 | 32976 ft | 496 kts | 95° |
| 2026-05-05 10:53 | 40.98655 | 40.14493 | 32981 ft | 496 kts | 95° |
| 2026-05-05 10:53 | 40.98415 | 40.23621 | 32994 ft | 496 kts | 95° |
| 2026-05-05 10:54 | 40.98169 | 40.32752 | 33000 ft | 497 kts | 95° |
| 2026-05-05 10:54 | 40.97916 | 40.41907 | 33003 ft | 498 kts | 96° |
| 2026-05-05 10:55 | 40.97654 | 40.51062 | 32993 ft | 498 kts | 96° |
| 2026-05-05 10:55 | 40.97387 | 40.60219 | 32998 ft | 498 kts | 96° |
| 2026-05-05 10:56 | 40.97113 | 40.69386 | 33011 ft | 498 kts | 96° |
| 2026-05-05 10:56 | 40.96832 | 40.78492 | 32993 ft | 498 kts | 96° |
| 2026-05-05 10:57 | 40.96544 | 40.87644 | 32975 ft | 497 kts | 96° |
| 2026-05-05 10:57 | 40.96245 | 40.96760 | 32984 ft | 496 kts | 96° |
| 2026-05-05 10:58 | 40.95937 | 41.05891 | 32992 ft | 496 kts | 96° |
| 2026-05-05 10:58 | 40.95622 | 41.15013 | 32974 ft | 497 kts | 96° |
| 2026-05-05 10:59 | 40.95297 | 41.24143 | 32958 ft | 497 kts | 96° |
| 2026-05-05 10:59 | 40.94973 | 41.33219 | 32927 ft | 495 kts | 96° |
| 2026-05-05 11:00 | 40.94642 | 41.42271 | 32963 ft | 492 kts | 96° |
| 2026-05-05 11:00 | 40.94298 | 41.51323 | 32943 ft | 492 kts | 96° |
| 2026-05-05 11:01 | 40.93950 | 41.60395 | 32924 ft | 494 kts | 96° |
| 2026-05-05 11:01 | 40.93595 | 41.69476 | 32916 ft | 495 kts | 96° |
| 2026-05-05 11:02 | 40.93231 | 41.78580 | 32891 ft | 496 kts | 96° |
| 2026-05-05 11:02 | 40.92861 | 41.87675 | 32905 ft | 495 kts | 96° |
| 2026-05-05 11:03 | 40.92483 | 41.96762 | 32908 ft | 494 kts | 96° |
| 2026-05-05 11:03 | 40.92100 | 42.05836 | 32908 ft | 494 kts | 96° |
| 2026-05-05 11:04 | 40.91712 | 42.14835 | 32910 ft | 494 kts | 97° |
| 2026-05-05 11:04 | 40.91313 | 42.23900 | 32940 ft | 493 kts | 97° |
| 2026-05-05 11:05 | 40.90908 | 42.32962 | 32918 ft | 494 kts | 97° |
| 2026-05-05 11:05 | 40.90496 | 42.42028 | 32939 ft | 494 kts | 97° |
| 2026-05-05 11:06 | 40.90075 | 42.51102 | 32923 ft | 494 kts | 97° |
| 2026-05-05 11:06 | 40.89651 | 42.60113 | 32968 ft | 495 kts | 97° |
| 2026-05-05 11:07 | 40.89217 | 42.69207 | 32964 ft | 496 kts | 97° |
| 2026-05-05 11:07 | 40.88774 | 42.78314 | 32969 ft | 497 kts | 97° |
| 2026-05-05 11:08 | 40.88323 | 42.87433 | 32959 ft | 497 kts | 97° |
| 2026-05-05 11:08 | 40.87864 | 42.96557 | 32958 ft | 498 kts | 98° |
| 2026-05-05 11:09 | 40.87399 | 43.05684 | 32967 ft | 499 kts | 98° |
| 2026-05-05 11:09 | 40.86924 | 43.14849 | 32956 ft | 500 kts | 98° |
| 2026-05-05 11:10 | 40.86443 | 43.24015 | 32960 ft | 500 kts | 98° |
| 2026-05-05 11:10 | 40.85953 | 43.33194 | 32953 ft | 500 kts | 98° |
| 2026-05-05 11:11 | 40.85459 | 43.42298 | 32943 ft | 499 kts | 98° |
| 2026-05-05 11:11 | 40.84956 | 43.51444 | 32946 ft | 499 kts | 98° |
| 2026-05-05 11:12 | 40.84446 | 43.60601 | 32953 ft | 499 kts | 98° |
| 2026-05-05 11:12 | 40.84017 | 43.68217 | 32943 ft | 499 kts | 98° |
| 2026-05-05 11:13 | 40.83631 | 43.78880 | 32923 ft | 501 kts | 97° |
| 2026-05-05 11:13 | 40.83392 | 43.86581 | 32936 ft | 502 kts | 97° |
| 2026-05-05 11:14 | 40.83084 | 43.95809 | 32937 ft | 503 kts | 98° |
| 2026-05-05 11:14 | 40.82772 | 44.05002 | 32939 ft | 505 kts | 98° |
| 2026-05-05 11:15 | 40.82452 | 44.14274 | 32944 ft | 506 kts | 98° |
| 2026-05-05 11:15 | 40.82140 | 44.23563 | 32961 ft | 507 kts | 98° |
| 2026-05-05 11:16 | 40.81753 | 44.32882 | 32947 ft | 508 kts | 100° |
| 2026-05-05 11:16 | 40.81379 | 44.42246 | 32922 ft | 512 kts | 98° |
| 2026-05-05 11:17 | 40.81074 | 44.51596 | 32904 ft | 513 kts | 98° |
| 2026-05-05 11:17 | 40.80732 | 44.61023 | 32892 ft | 514 kts | 99° |
| 2026-05-05 11:18 | 40.80305 | 44.70427 | 32932 ft | 511 kts | 102° |
| 2026-05-05 11:18 | 40.79830 | 44.79787 | 32911 ft | 514 kts | 99° |
| 2026-05-05 11:19 | 40.79557 | 44.89162 | 32898 ft | 514 kts | 99° |
| 2026-05-05 11:19 | 40.79210 | 44.98595 | 32889 ft | 514 kts | 100° |
| 2026-05-05 11:20 | 40.78806 | 45.08007 | 32894 ft | 513 kts | 100° |
| 2026-05-05 11:20 | 40.78387 | 45.17404 | 32901 ft | 513 kts | 100° |
| 2026-05-05 11:21 | 40.77968 | 45.26799 | 32915 ft | 512 kts | 100° |
| 2026-05-05 11:21 | 40.77547 | 45.36186 | 32913 ft | 512 kts | 100° |
| 2026-05-05 11:22 | 40.77120 | 45.45515 | 32920 ft | 512 kts | 100° |
| 2026-05-05 11:22 | 40.77243 | 45.55010 | 32897 ft | 524 kts | 89° |
| 2026-05-05 11:23 | 40.78186 | 45.64575 | 32840 ft | 526 kts | 88° |
| 2026-05-05 11:23 | 40.79313 | 45.74134 | 32917 ft | 528 kts | 88° |
| 2026-05-05 11:24 | 40.80357 | 45.83679 | 32906 ft | 529 kts | 89° |
| 2026-05-05 11:24 | 40.81331 | 45.93313 | 32916 ft | 528 kts | 89° |
| 2026-05-05 11:25 | 40.82283 | 46.02936 | 32910 ft | 528 kts | 89° |
| 2026-05-05 11:25 | 40.83232 | 46.12555 | 32915 ft | 528 kts | 89° |
| 2026-05-05 11:26 | 40.84180 | 46.22191 | 32910 ft | 529 kts | 89° |
| 2026-05-05 11:26 | 40.85122 | 46.31838 | 32920 ft | 530 kts | 89° |
| 2026-05-05 11:27 | 40.86051 | 46.41456 | 32915 ft | 531 kts | 89° |
| 2026-05-05 11:27 | 40.86982 | 46.51160 | 32917 ft | 531 kts | 89° |
| 2026-05-05 11:28 | 40.87904 | 46.60867 | 32927 ft | 532 kts | 89° |
| 2026-05-05 11:28 | 40.88817 | 46.70572 | 32914 ft | 531 kts | 89° |
| 2026-05-05 11:29 | 40.89719 | 46.80201 | 32926 ft | 532 kts | 88° |
| 2026-05-05 11:29 | 40.91212 | 46.89850 | 32935 ft | 537 kts | 81° |
| 2026-05-05 11:30 | 40.93061 | 46.99442 | 32919 ft | 538 kts | 81° |
| 2026-05-05 11:30 | 40.94882 | 47.09032 | 32935 ft | 537 kts | 81° |
| 2026-05-05 11:31 | 40.96649 | 47.18600 | 32941 ft | 538 kts | 81° |
| 2026-05-05 11:31 | 40.98407 | 47.28239 | 32924 ft | 538 kts | 81° |
| 2026-05-05 11:32 | 41.00156 | 47.37865 | 32912 ft | 537 kts | 81° |
| 2026-05-05 11:32 | 41.01898 | 47.47481 | 32919 ft | 536 kts | 81° |
| 2026-05-05 11:33 | 41.03631 | 47.57099 | 32915 ft | 536 kts | 81° |
| 2026-05-05 11:33 | 41.05344 | 47.66655 | 32885 ft | 536 kts | 81° |
| 2026-05-05 11:34 | 41.07062 | 47.76293 | 32910 ft | 537 kts | 81° |
| 2026-05-05 11:34 | 41.08772 | 47.85928 | 32890 ft | 536 kts | 82° |
| 2026-05-05 11:35 | 41.10786 | 47.95401 | 32926 ft | 540 kts | 71° |
| 2026-05-05 11:35 | 41.14225 | 48.04302 | 32888 ft | 542 kts | 59° |
| 2026-05-05 11:36 | 41.18590 | 48.12441 | 32908 ft | 541 kts | 54° |
| 2026-05-05 11:36 | 41.23163 | 48.20387 | 32904 ft | 542 kts | 54° |
| 2026-05-05 11:37 | 41.27670 | 48.28434 | 32897 ft | 542 kts | 55° |
| 2026-05-05 11:37 | 41.32101 | 48.36547 | 32916 ft | 542 kts | 55° |
| 2026-05-05 11:38 | 41.36494 | 48.44628 | 32923 ft | 542 kts | 55° |
| 2026-05-05 11:38 | 41.40927 | 48.52770 | 32930 ft | 542 kts | 55° |
| 2026-05-05 11:39 | 41.45400 | 48.60876 | 32938 ft | 542 kts | 54° |
| 2026-05-05 11:39 | 41.49950 | 48.68895 | 32930 ft | 542 kts | 54° |
| 2026-05-05 11:40 | 41.54412 | 48.76928 | 32938 ft | 541 kts | 57° |
| 2026-05-05 11:40 | 41.58607 | 48.85280 | 32944 ft | 541 kts | 59° |
| 2026-05-05 11:41 | 41.62733 | 48.93704 | 32939 ft | 541 kts | 58° |
| 2026-05-05 11:41 | 41.66908 | 49.02102 | 32944 ft | 541 kts | 58° |
| 2026-05-05 11:42 | 41.71099 | 49.10480 | 32940 ft | 541 kts | 58° |
| 2026-05-05 11:42 | 41.75260 | 49.18825 | 32948 ft | 542 kts | 58° |
| 2026-05-05 11:43 | 41.79439 | 49.27243 | 32944 ft | 542 kts | 58° |
| 2026-05-05 11:43 | 41.83683 | 49.35617 | 32945 ft | 544 kts | 56° |
| 2026-05-05 11:44 | 41.88184 | 49.43779 | 32935 ft | 544 kts | 54° |
| 2026-05-05 11:44 | 41.92691 | 49.51877 | 32944 ft | 544 kts | 55° |
| 2026-05-05 11:45 | 41.97164 | 49.60058 | 32972 ft | 543 kts | 55° |
| 2026-05-05 11:45 | 42.01622 | 49.68303 | 32941 ft | 544 kts | 56° |
| 2026-05-05 11:46 | 42.06068 | 49.76552 | 32937 ft | 544 kts | 56° |
| 2026-05-05 11:46 | 42.10519 | 49.84825 | 32938 ft | 545 kts | 56° |
| 2026-05-05 11:47 | 42.14964 | 49.93103 | 32935 ft | 544 kts | 56° |
| 2026-05-05 11:47 | 42.19395 | 50.01378 | 32932 ft | 544 kts | 56° |
| 2026-05-05 11:48 | 42.25996 | 50.13749 | 32921 ft | 544 kts | 56° |
| 2026-05-05 11:48 | 42.30410 | 50.22051 | 32924 ft | 543 kts | 56° |
| 2026-05-05 11:49 | 42.34812 | 50.30354 | 32925 ft | 543 kts | 56° |
| 2026-05-05 11:49 | 42.39203 | 50.38659 | 32916 ft | 542 kts | 56° |
| 2026-05-05 11:50 | 42.43580 | 50.46957 | 32923 ft | 541 kts | 56° |
| 2026-05-05 11:50 | 42.48100 | 50.55115 | 32922 ft | 541 kts | 53° |
| 2026-05-05 11:51 | 42.52770 | 50.63131 | 32919 ft | 541 kts | 53° |
| 2026-05-05 11:51 | 42.57387 | 50.71100 | 32915 ft | 540 kts | 53° |
| 2026-05-05 11:52 | 42.61988 | 50.79160 | 32910 ft | 540 kts | 53° |
| 2026-05-05 11:52 | 42.66567 | 50.87241 | 32907 ft | 539 kts | 53° |
| 2026-05-05 11:53 | 42.71139 | 50.95333 | 32909 ft | 539 kts | 53° |
| 2026-05-05 11:53 | 42.75711 | 51.03439 | 32910 ft | 540 kts | 53° |
| 2026-05-05 11:54 | 42.80281 | 51.11559 | 32902 ft | 539 kts | 53° |
| 2026-05-05 11:54 | 42.84810 | 51.19627 | 32902 ft | 539 kts | 53° |
| 2026-05-05 11:55 | 42.89365 | 51.27762 | 32895 ft | 541 kts | 54° |
| 2026-05-05 11:55 | 42.93928 | 51.35941 | 32905 ft | 541 kts | 54° |
| 2026-05-05 11:56 | 42.98490 | 51.44141 | 32894 ft | 542 kts | 54° |
| 2026-05-05 11:56 | 43.03050 | 51.52355 | 32868 ft | 543 kts | 54° |
| 2026-05-05 11:57 | 43.07608 | 51.60589 | 32891 ft | 543 kts | 54° |
| 2026-05-05 11:57 | 43.12158 | 51.68831 | 32889 ft | 543 kts | 54° |
| 2026-05-05 11:58 | 43.16701 | 51.77086 | 32870 ft | 542 kts | 54° |
| 2026-05-05 11:58 | 43.21231 | 51.85338 | 32875 ft | 542 kts | 54° |
| 2026-05-05 11:59 | 43.25728 | 51.93554 | 32876 ft | 541 kts | 54° |
| 2026-05-05 11:59 | 43.30245 | 52.01828 | 32861 ft | 541 kts | 54° |
| 2026-05-05 12:00 | 43.33983 | 52.08695 | 32872 ft | 539 kts | 54° |
| 2026-05-05 12:00 | 43.38466 | 52.16950 | 32872 ft | 538 kts | 54° |
| 2026-05-05 12:01 | 43.42936 | 52.25204 | 32884 ft | 537 kts | 54° |
| 2026-05-05 12:01 | 43.47392 | 52.33456 | 32868 ft | 536 kts | 54° |
| 2026-05-05 12:02 | 43.51831 | 52.41700 | 32865 ft | 535 kts | 54° |
| 2026-05-05 12:02 | 43.56260 | 52.49949 | 32865 ft | 535 kts | 54° |
| 2026-05-05 12:03 | 43.60647 | 52.58143 | 32855 ft | 534 kts | 54° |
| 2026-05-05 12:03 | 43.65056 | 52.66399 | 32854 ft | 533 kts | 54° |
| 2026-05-05 12:04 | 43.69446 | 52.74668 | 32846 ft | 534 kts | 55° |
| 2026-05-05 12:04 | 43.73819 | 52.82971 | 32838 ft | 534 kts | 55° |
| 2026-05-05 12:05 | 43.78194 | 52.91299 | 32852 ft | 535 kts | 55° |
| 2026-05-05 12:05 | 43.82542 | 52.99589 | 32851 ft | 535 kts | 55° |
| 2026-05-05 12:06 | 43.86910 | 53.07941 | 32842 ft | 535 kts | 55° |
| 2026-05-05 12:06 | 43.91275 | 53.16303 | 32847 ft | 535 kts | 55° |
| 2026-05-05 12:07 | 43.95634 | 53.24668 | 32844 ft | 534 kts | 55° |
| 2026-05-05 12:07 | 43.99980 | 53.33031 | 32835 ft | 533 kts | 55° |
| 2026-05-05 12:08 | 44.04316 | 53.41401 | 32846 ft | 532 kts | 55° |
| 2026-05-05 12:08 | 44.08613 | 53.49721 | 32836 ft | 531 kts | 56° |
| 2026-05-05 12:09 | 44.12914 | 53.58074 | 32838 ft | 530 kts | 55° |
| 2026-05-05 12:09 | 44.17205 | 53.66430 | 32838 ft | 530 kts | 56° |
| 2026-05-05 12:10 | 44.21484 | 53.74788 | 32840 ft | 529 kts | 56° |
| 2026-05-05 12:10 | 44.25758 | 53.83159 | 32838 ft | 529 kts | 56° |
| 2026-05-05 12:11 | 44.30024 | 53.91539 | 32838 ft | 530 kts | 56° |
| 2026-05-05 12:11 | 44.34263 | 53.99890 | 32835 ft | 530 kts | 56° |
| 2026-05-05 12:12 | 44.38522 | 54.08305 | 32830 ft | 530 kts | 56° |
| 2026-05-05 12:12 | 44.42770 | 54.16721 | 32830 ft | 529 kts | 56° |
| 2026-05-05 12:13 | 44.47007 | 54.25142 | 32832 ft | 529 kts | 56° |
| 2026-05-05 12:13 | 44.51241 | 54.33579 | 32822 ft | 530 kts | 56° |
| 2026-05-05 12:14 | 44.55470 | 54.42035 | 32834 ft | 530 kts | 56° |
| 2026-05-05 12:14 | 44.59695 | 54.50506 | 32827 ft | 530 kts | 56° |
| 2026-05-05 12:15 | 44.63895 | 54.58945 | 32827 ft | 530 kts | 56° |
| 2026-05-05 12:15 | 44.68616 | 54.66891 | 32810 ft | 530 kts | 43° |
| 2026-05-05 12:16 | 44.74081 | 54.73824 | 32820 ft | 529 kts | 40° |
| 2026-05-05 12:16 | 44.79568 | 54.80716 | 32821 ft | 529 kts | 41° |
| 2026-05-05 12:17 | 44.85008 | 54.87674 | 32809 ft | 527 kts | 41° |
| 2026-05-05 12:17 | 44.90415 | 54.94652 | 32814 ft | 526 kts | 41° |
| 2026-05-05 12:18 | 44.95815 | 55.01636 | 32816 ft | 526 kts | 41° |
| 2026-05-05 12:18 | 45.01179 | 55.08583 | 32835 ft | 526 kts | 41° |
| 2026-05-05 12:19 | 45.06396 | 55.15850 | 32815 ft | 528 kts | 51° |
| 2026-05-05 12:19 | 45.10355 | 55.24582 | 32824 ft | 526 kts | 66° |
| 2026-05-05 12:20 | 45.13055 | 55.34186 | 32818 ft | 525 kts | 71° |
| 2026-05-05 12:20 | 45.15622 | 55.43884 | 32815 ft | 526 kts | 71° |
| 2026-05-05 12:21 | 45.18213 | 55.53519 | 32815 ft | 526 kts | 71° |
| 2026-05-05 12:21 | 45.20846 | 55.63204 | 32811 ft | 526 kts | 71° |
| 2026-05-05 12:22 | 45.23480 | 55.72900 | 32806 ft | 526 kts | 71° |
| 2026-05-05 12:22 | 45.26097 | 55.82581 | 32814 ft | 525 kts | 71° |
| 2026-05-05 12:23 | 45.28687 | 55.92215 | 32798 ft | 525 kts | 70° |
| 2026-05-05 12:23 | 45.31274 | 56.01889 | 32817 ft | 523 kts | 70° |
| 2026-05-05 12:24 | 45.33857 | 56.11549 | 32814 ft | 522 kts | 70° |
| 2026-05-05 12:24 | 45.36422 | 56.21208 | 32814 ft | 521 kts | 71° |
| 2026-05-05 12:25 | 45.38975 | 56.30872 | 32814 ft | 521 kts | 71° |
| 2026-05-05 12:25 | 45.41518 | 56.40527 | 32815 ft | 521 kts | 70° |
| 2026-05-05 12:26 | 45.44055 | 56.50199 | 32811 ft | 521 kts | 70° |
| 2026-05-05 12:26 | 45.46563 | 56.59798 | 32810 ft | 521 kts | 71° |
| 2026-05-05 12:27 | 45.49082 | 56.69483 | 32812 ft | 521 kts | 71° |
| 2026-05-05 12:27 | 45.51589 | 56.79159 | 32818 ft | 521 kts | 71° |
| 2026-05-05 12:28 | 45.54096 | 56.88874 | 32816 ft | 521 kts | 71° |
| 2026-05-05 12:28 | 45.56593 | 56.98590 | 32816 ft | 521 kts | 71° |
| 2026-05-05 12:29 | 45.59079 | 57.08306 | 32809 ft | 520 kts | 71° |
| 2026-05-05 12:29 | 45.61554 | 57.18018 | 32818 ft | 520 kts | 71° |
| 2026-05-05 12:30 | 45.63999 | 57.27657 | 32821 ft | 519 kts | 71° |
| 2026-05-05 12:30 | 45.66453 | 57.37367 | 32825 ft | 519 kts | 71° |
| 2026-05-05 12:31 | 45.68893 | 57.47067 | 32834 ft | 518 kts | 71° |
| 2026-05-05 12:31 | 45.71325 | 57.56775 | 32830 ft | 517 kts | 71° |
| 2026-05-05 12:32 | 45.73744 | 57.66468 | 32833 ft | 517 kts | 71° |
| 2026-05-05 12:32 | 45.76145 | 57.76123 | 32837 ft | 517 kts | 71° |
| 2026-05-05 12:33 | 45.78551 | 57.85837 | 32846 ft | 517 kts | 71° |
| 2026-05-05 12:33 | 45.80951 | 57.95571 | 32849 ft | 518 kts | 71° |
| 2026-05-05 12:34 | 45.83345 | 58.05323 | 32858 ft | 518 kts | 71° |
| 2026-05-05 12:34 | 45.85731 | 58.15080 | 32860 ft | 519 kts | 71° |
| 2026-05-05 12:35 | 45.88095 | 58.24797 | 32862 ft | 519 kts | 71° |
| 2026-05-05 12:35 | 45.90472 | 58.34606 | 32868 ft | 519 kts | 71° |
| 2026-05-05 12:36 | 45.92837 | 58.44406 | 32860 ft | 520 kts | 71° |
| 2026-05-05 12:36 | 45.95194 | 58.54219 | 32867 ft | 519 kts | 71° |
| 2026-05-05 12:37 | 45.97544 | 58.64048 | 32877 ft | 519 kts | 71° |
| 2026-05-05 12:37 | 45.99869 | 58.73811 | 32883 ft | 518 kts | 71° |
| 2026-05-05 12:38 | 46.02194 | 58.83620 | 32881 ft | 518 kts | 71° |
| 2026-05-05 12:38 | 46.04515 | 58.93456 | 32884 ft | 519 kts | 71° |
| 2026-05-05 12:39 | 46.06828 | 59.03304 | 32884 ft | 519 kts | 71° |
| 2026-05-05 12:39 | 46.09136 | 59.13172 | 32887 ft | 520 kts | 71° |
| 2026-05-05 12:40 | 46.11441 | 59.23071 | 32892 ft | 520 kts | 71° |
| 2026-05-05 12:40 | 46.13724 | 59.32924 | 32891 ft | 521 kts | 71° |
| 2026-05-05 12:41 | 46.16007 | 59.42822 | 32888 ft | 519 kts | 71° |
| 2026-05-05 12:41 | 46.18278 | 59.52706 | 32897 ft | 518 kts | 71° |
| 2026-05-05 12:42 | 46.20539 | 59.62599 | 32895 ft | 518 kts | 71° |
| 2026-05-05 12:42 | 46.22789 | 59.72482 | 32893 ft | 517 kts | 71° |
| 2026-05-05 12:43 | 46.25002 | 59.82304 | 32899 ft | 517 kts | 71° |
| 2026-05-05 12:43 | 46.27216 | 59.92210 | 32909 ft | 518 kts | 71° |
| 2026-05-05 12:44 | 46.29424 | 60.02139 | 32898 ft | 519 kts | 71° |
| 2026-05-05 12:44 | 46.31617 | 60.12030 | 32904 ft | 519 kts | 71° |
| 2026-05-05 12:45 | 46.33818 | 60.22007 | 32905 ft | 520 kts | 71° |
| 2026-05-05 12:45 | 46.36012 | 60.31995 | 32894 ft | 520 kts | 71° |
| 2026-05-05 12:46 | 46.38197 | 60.41993 | 32905 ft | 520 kts | 71° |
| 2026-05-05 12:46 | 46.40373 | 60.51997 | 32901 ft | 520 kts | 71° |
| 2026-05-05 12:47 | 46.42526 | 60.61946 | 32908 ft | 520 kts | 71° |
| 2026-05-05 12:47 | 46.44680 | 60.71945 | 32900 ft | 520 kts | 71° |
| 2026-05-05 12:48 | 46.46826 | 60.81956 | 32899 ft | 519 kts | 71° |
| 2026-05-05 12:48 | 46.48962 | 60.91966 | 32905 ft | 519 kts | 72° |
| 2026-05-05 12:49 | 46.50732 | 61.00302 | 32890 ft | 519 kts | 71° |
| 2026-05-05 12:49 | 46.52846 | 61.10299 | 32901 ft | 517 kts | 72° |
| 2026-05-05 12:50 | 46.54949 | 61.20295 | 32899 ft | 516 kts | 72° |
| 2026-05-05 12:50 | 46.57036 | 61.30264 | 32905 ft | 515 kts | 72° |
| 2026-05-05 12:51 | 46.59112 | 61.40228 | 32924 ft | 514 kts | 72° |
| 2026-05-05 12:51 | 46.61174 | 61.50175 | 32906 ft | 513 kts | 72° |
| 2026-05-05 12:52 | 46.63226 | 61.60122 | 32904 ft | 513 kts | 72° |
| 2026-05-05 12:52 | 46.65255 | 61.70006 | 32905 ft | 513 kts | 72° |
| 2026-05-05 12:53 | 46.67290 | 61.79967 | 32919 ft | 512 kts | 72° |
| 2026-05-05 12:53 | 46.69312 | 61.89919 | 32907 ft | 512 kts | 72° |
| 2026-05-05 12:54 | 46.72329 | 62.04857 | 32912 ft | 512 kts | 72° |
| 2026-05-05 12:55 | 46.74327 | 62.14811 | 32921 ft | 511 kts | 73° |
| 2026-05-05 12:55 | 46.76312 | 62.24753 | 32907 ft | 510 kts | 73° |
| 2026-05-05 12:56 | 46.78283 | 62.34674 | 32908 ft | 509 kts | 73° |
| 2026-05-05 12:56 | 46.80232 | 62.44537 | 32912 ft | 508 kts | 73° |
| 2026-05-05 12:57 | 46.82182 | 62.54448 | 32915 ft | 507 kts | 73° |
| 2026-05-05 12:57 | 46.84118 | 62.64342 | 32915 ft | 506 kts | 73° |
| 2026-05-05 12:58 | 46.86047 | 62.74255 | 32916 ft | 506 kts | 73° |
| 2026-05-05 12:58 | 46.87965 | 62.84163 | 32920 ft | 506 kts | 73° |
| 2026-05-05 12:59 | 46.89863 | 62.94020 | 32914 ft | 506 kts | 73° |
| 2026-05-05 12:59 | 46.91763 | 63.03940 | 32915 ft | 506 kts | 74° |
| 2026-05-05 13:00 | 46.94599 | 63.18834 | 32935 ft | 506 kts | 74° |
| 2026-05-05 13:01 | 46.98343 | 63.38658 | 32921 ft | 505 kts | 74° |
| 2026-05-05 13:01 | 47.00197 | 63.48574 | 32915 ft | 505 kts | 74° |
| 2026-05-05 13:02 | 47.02041 | 63.58493 | 32919 ft | 504 kts | 74° |
| 2026-05-05 13:02 | 47.03876 | 63.68401 | 32937 ft | 503 kts | 75° |
| 2026-05-05 13:03 | 47.05698 | 63.78297 | 32918 ft | 502 kts | 75° |
| 2026-05-05 13:03 | 47.07499 | 63.88125 | 32922 ft | 501 kts | 75° |
| 2026-05-05 13:04 | 47.09297 | 63.97995 | 32923 ft | 501 kts | 75° |
| 2026-05-05 13:04 | 47.11089 | 64.07885 | 32929 ft | 501 kts | 75° |
| 2026-05-05 13:05 | 47.12873 | 64.17782 | 32927 ft | 501 kts | 75° |
| 2026-05-05 13:05 | 47.14647 | 64.27676 | 32924 ft | 501 kts | 75° |
| 2026-05-05 13:06 | 47.16405 | 64.37542 | 32927 ft | 502 kts | 75° |
| 2026-05-05 13:06 | 47.18170 | 64.47491 | 32928 ft | 502 kts | 75° |
| 2026-05-05 13:07 | 47.19923 | 64.57426 | 32922 ft | 502 kts | 75° |
| 2026-05-05 13:07 | 47.21666 | 64.67355 | 32930 ft | 501 kts | 76° |
| 2026-05-05 13:08 | 47.23401 | 64.77289 | 32934 ft | 501 kts | 76° |
| 2026-05-05 13:08 | 47.25114 | 64.87152 | 32942 ft | 500 kts | 76° |
| 2026-05-05 13:09 | 47.26828 | 64.97064 | 32933 ft | 499 kts | 76° |
| 2026-05-05 13:09 | 47.28533 | 65.06966 | 32934 ft | 498 kts | 76° |
| 2026-05-05 13:10 | 47.30233 | 65.16846 | 32941 ft | 498 kts | 76° |
| 2026-05-05 13:10 | 47.31930 | 65.26752 | 32957 ft | 497 kts | 76° |
| 2026-05-05 13:11 | 47.33611 | 65.36633 | 32948 ft | 497 kts | 76° |
| 2026-05-05 13:11 | 47.35284 | 65.46528 | 32955 ft | 497 kts | 76° |
| 2026-05-05 13:12 | 47.36936 | 65.56351 | 32962 ft | 497 kts | 76° |
| 2026-05-05 13:12 | 47.38592 | 65.66256 | 32967 ft | 497 kts | 76° |
| 2026-05-05 13:13 | 47.40237 | 65.76153 | 32966 ft | 497 kts | 77° |
| 2026-05-05 13:13 | 47.41877 | 65.86056 | 32967 ft | 497 kts | 76° |
| 2026-05-05 13:14 | 47.43566 | 65.95975 | 32969 ft | 497 kts | 76° |
| 2026-05-05 13:14 | 47.45264 | 66.05861 | 32992 ft | 496 kts | 76° |
| 2026-05-05 13:15 | 47.46941 | 66.15698 | 32999 ft | 495 kts | 76° |
| 2026-05-05 13:15 | 47.48609 | 66.25585 | 32992 ft | 496 kts | 77° |
| 2026-05-05 13:16 | 47.50265 | 66.35486 | 32993 ft | 496 kts | 77° |
| 2026-05-05 13:16 | 47.51913 | 66.45389 | 33001 ft | 495 kts | 77° |
| 2026-05-05 13:17 | 47.53557 | 66.55302 | 32992 ft | 495 kts | 77° |
| 2026-05-05 13:17 | 47.55180 | 66.65155 | 32990 ft | 495 kts | 77° |
| 2026-05-05 13:18 | 47.56796 | 66.75064 | 32994 ft | 495 kts | 78° |
| 2026-05-05 13:18 | 47.58347 | 66.85001 | 32993 ft | 495 kts | 78° |
| 2026-05-05 13:19 | 47.59874 | 66.94947 | 32994 ft | 494 kts | 78° |
| 2026-05-05 13:19 | 47.61397 | 67.04880 | 32994 ft | 494 kts | 78° |
| 2026-05-05 13:20 | 47.62920 | 67.14833 | 33001 ft | 494 kts | 78° |
| 2026-05-05 13:20 | 47.64436 | 67.24797 | 32996 ft | 494 kts | 78° |
| 2026-05-05 13:21 | 47.65931 | 67.34689 | 33001 ft | 494 kts | 78° |
| 2026-05-05 13:21 | 47.67426 | 67.44650 | 32999 ft | 494 kts | 79° |
| 2026-05-05 13:22 | 47.68916 | 67.54637 | 33020 ft | 494 kts | 79° |
| 2026-05-05 13:22 | 47.70396 | 67.64624 | 33020 ft | 494 kts | 79° |
| 2026-05-05 13:23 | 47.71858 | 67.74536 | 33023 ft | 494 kts | 79° |
| 2026-05-05 13:23 | 47.72996 | 67.84595 | 33030 ft | 493 kts | 83° |
| 2026-05-05 13:24 | 47.73954 | 67.94689 | 33018 ft | 493 kts | 83° |
| 2026-05-05 13:24 | 47.74912 | 68.04784 | 33011 ft | 493 kts | 83° |
| 2026-05-05 13:25 | 47.75883 | 68.14886 | 33008 ft | 494 kts | 83° |
| 2026-05-05 13:25 | 47.76852 | 68.24994 | 33005 ft | 494 kts | 83° |
| 2026-05-05 13:26 | 47.77811 | 68.35100 | 33001 ft | 493 kts | 83° |
| 2026-05-05 13:26 | 47.78761 | 68.45210 | 32997 ft | 493 kts | 83° |
| 2026-05-05 13:27 | 47.79695 | 68.55258 | 33000 ft | 493 kts | 83° |
| 2026-05-05 13:27 | 47.80627 | 68.65386 | 32999 ft | 494 kts | 83° |
| 2026-05-05 13:28 | 47.81551 | 68.75515 | 33001 ft | 494 kts | 83° |
| 2026-05-05 13:28 | 47.82133 | 68.85675 | 32992 ft | 492 kts | 92° |
| 2026-05-05 13:29 | 47.81916 | 68.95833 | 33002 ft | 491 kts | 94° |
| 2026-05-05 13:29 | 47.81674 | 69.05993 | 33004 ft | 491 kts | 94° |
| 2026-05-05 13:30 | 47.81459 | 69.16100 | 32998 ft | 491 kts | 94° |
| 2026-05-05 13:30 | 47.81253 | 69.26277 | 33004 ft | 491 kts | 94° |
| 2026-05-05 13:31 | 47.81041 | 69.36455 | 33002 ft | 491 kts | 94° |
| 2026-05-05 13:31 | 47.80819 | 69.46614 | 33008 ft | 491 kts | 94° |
| 2026-05-05 13:32 | 47.80586 | 69.56762 | 33006 ft | 490 kts | 94° |
| 2026-05-05 13:32 | 47.80346 | 69.66846 | 33004 ft | 490 kts | 94° |
| 2026-05-05 13:33 | 47.80097 | 69.76972 | 33011 ft | 490 kts | 94° |
| 2026-05-05 13:33 | 47.79838 | 69.87105 | 33011 ft | 490 kts | 94° |
| 2026-05-05 13:34 | 47.79616 | 69.95526 | 33008 ft | 490 kts | 94° |
| 2026-05-05 13:34 | 47.79340 | 70.05684 | 33008 ft | 490 kts | 94° |
| 2026-05-05 13:35 | 47.79056 | 70.15816 | 33016 ft | 490 kts | 95° |
| 2026-05-05 13:35 | 47.78762 | 70.25963 | 33007 ft | 490 kts | 94° |
| 2026-05-05 13:36 | 47.78462 | 70.36026 | 33013 ft | 491 kts | 94° |
| 2026-05-05 13:36 | 47.78153 | 70.46175 | 33024 ft | 492 kts | 94° |
| 2026-05-05 13:37 | 47.77832 | 70.56339 | 33027 ft | 492 kts | 95° |
| 2026-05-05 13:37 | 47.77502 | 70.66518 | 33029 ft | 492 kts | 95° |
| 2026-05-05 13:38 | 47.77160 | 70.76687 | 33021 ft | 493 kts | 94° |
| 2026-05-05 13:38 | 47.76814 | 70.86858 | 33034 ft | 493 kts | 94° |
| 2026-05-05 13:39 | 47.76457 | 70.97034 | 33032 ft | 493 kts | 95° |
| 2026-05-05 13:39 | 47.76093 | 71.07136 | 33037 ft | 493 kts | 95° |
| 2026-05-05 13:40 | 47.75719 | 71.17308 | 33042 ft | 492 kts | 94° |
| 2026-05-05 13:40 | 47.75335 | 71.27464 | 33033 ft | 492 kts | 95° |
| 2026-05-05 13:41 | 47.74944 | 71.37648 | 33048 ft | 492 kts | 95° |
| 2026-05-05 13:41 | 47.74542 | 71.47803 | 33046 ft | 492 kts | 95° |
| 2026-05-05 13:42 | 47.74134 | 71.57887 | 33053 ft | 492 kts | 95° |
| 2026-05-05 13:42 | 47.73715 | 71.68048 | 33054 ft | 492 kts | 95° |
| 2026-05-05 13:43 | 47.73289 | 71.78192 | 33057 ft | 491 kts | 95° |
| 2026-05-05 13:43 | 47.72820 | 71.88323 | 33059 ft | 491 kts | 96° |
| 2026-05-05 13:44 | 47.72234 | 71.98427 | 33058 ft | 491 kts | 96° |
| 2026-05-05 13:44 | 47.71628 | 72.08458 | 33057 ft | 490 kts | 96° |
| 2026-05-05 13:45 | 47.71024 | 72.18541 | 33062 ft | 490 kts | 96° |
| 2026-05-05 13:45 | 47.70421 | 72.28626 | 33069 ft | 489 kts | 96° |
| 2026-05-05 13:46 | 47.69815 | 72.38657 | 33067 ft | 487 kts | 96° |
| 2026-05-05 13:46 | 47.69200 | 72.48671 | 33070 ft | 486 kts | 96° |
| 2026-05-05 13:47 | 47.68578 | 72.58667 | 33069 ft | 485 kts | 96° |
| 2026-05-05 13:47 | 47.67951 | 72.68578 | 33074 ft | 485 kts | 96° |
| 2026-05-05 13:48 | 47.67313 | 72.78539 | 33076 ft | 485 kts | 96° |
| 2026-05-05 13:48 | 47.66664 | 72.88518 | 33077 ft | 485 kts | 96° |
| 2026-05-05 13:49 | 47.66007 | 72.98500 | 33073 ft | 486 kts | 96° |
| 2026-05-05 13:49 | 47.65346 | 73.08398 | 33069 ft | 485 kts | 96° |
| 2026-05-05 13:50 | 47.64673 | 73.18362 | 33070 ft | 484 kts | 96° |
| 2026-05-05 13:50 | 47.63993 | 73.28288 | 33071 ft | 483 kts | 96° |
| 2026-05-05 13:51 | 47.63305 | 73.38202 | 33075 ft | 482 kts | 96° |
| 2026-05-05 13:51 | 47.62610 | 73.48087 | 33070 ft | 481 kts | 96° |
| 2026-05-05 13:52 | 47.61909 | 73.57944 | 33062 ft | 480 kts | 96° |
| 2026-05-05 13:52 | 47.61203 | 73.67789 | 33070 ft | 480 kts | 96° |
| 2026-05-05 13:53 | 47.60486 | 73.77614 | 33067 ft | 480 kts | 96° |
| 2026-05-05 13:53 | 47.59765 | 73.87381 | 33069 ft | 480 kts | 97° |
| 2026-05-05 13:54 | 47.59030 | 73.97209 | 33068 ft | 480 kts | 97° |
| 2026-05-05 13:54 | 47.58287 | 74.07050 | 33071 ft | 480 kts | 97° |
| 2026-05-05 13:55 | 47.57534 | 74.16905 | 33067 ft | 480 kts | 97° |
| 2026-05-05 13:55 | 47.56780 | 74.26674 | 33071 ft | 481 kts | 97° |
| 2026-05-05 13:56 | 47.56011 | 74.36519 | 33066 ft | 480 kts | 97° |
| 2026-05-05 13:56 | 47.55234 | 74.46341 | 33067 ft | 480 kts | 97° |
| 2026-05-05 13:57 | 47.54451 | 74.56155 | 33067 ft | 480 kts | 97° |
| 2026-05-05 13:57 | 47.53661 | 74.65961 | 33076 ft | 480 kts | 97° |
| 2026-05-05 13:58 | 47.52860 | 74.75759 | 33072 ft | 480 kts | 97° |
| 2026-05-05 13:58 | 47.52052 | 74.85519 | 33074 ft | 480 kts | 97° |
| 2026-05-05 13:59 | 47.50827 | 75.00219 | 33077 ft | 480 kts | 97° |
| 2026-05-05 14:00 | 47.49719 | 75.13278 | 33072 ft | 481 kts | 97° |
| 2026-05-05 14:00 | 47.48731 | 75.24750 | 33067 ft | 481 kts | 97° |
| 2026-05-05 14:01 | 47.47879 | 75.34574 | 33057 ft | 481 kts | 97° |
| 2026-05-05 14:01 | 47.47019 | 75.44392 | 33072 ft | 481 kts | 97° |
| 2026-05-05 14:02 | 47.46153 | 75.54140 | 33072 ft | 480 kts | 97° |
| 2026-05-05 14:02 | 47.45274 | 75.63932 | 33070 ft | 480 kts | 97° |
| 2026-05-05 14:03 | 47.44387 | 75.73720 | 33071 ft | 480 kts | 97° |
| 2026-05-05 14:03 | 47.43495 | 75.83499 | 33074 ft | 480 kts | 97° |
| 2026-05-05 14:04 | 47.42599 | 75.93237 | 33070 ft | 481 kts | 97° |
| 2026-05-05 14:04 | 47.41685 | 76.03045 | 33072 ft | 481 kts | 97° |
| 2026-05-05 14:05 | 47.40764 | 76.12843 | 33070 ft | 481 kts | 98° |
| 2026-05-05 14:05 | 47.39841 | 76.22580 | 33064 ft | 482 kts | 97° |
| 2026-05-05 14:06 | 47.38902 | 76.32365 | 33068 ft | 481 kts | 97° |
| 2026-05-05 14:06 | 47.37961 | 76.42140 | 33076 ft | 480 kts | 97° |
| 2026-05-05 14:07 | 47.37012 | 76.51887 | 33074 ft | 480 kts | 98° |
| 2026-05-05 14:07 | 47.36053 | 76.61613 | 33075 ft | 479 kts | 97° |
| 2026-05-05 14:08 | 47.35086 | 76.71353 | 33077 ft | 480 kts | 97° |
| 2026-05-05 14:08 | 47.34110 | 76.81104 | 33078 ft | 481 kts | 98° |
| 2026-05-05 14:09 | 47.33122 | 76.90888 | 33081 ft | 482 kts | 98° |
| 2026-05-05 14:09 | 47.32130 | 77.00633 | 33081 ft | 483 kts | 98° |
| 2026-05-05 14:10 | 47.31301 | 77.10452 | 33078 ft | 483 kts | 94° |
| 2026-05-05 14:10 | 47.30800 | 77.20325 | 33073 ft | 483 kts | 93° |
| 2026-05-05 14:11 | 47.30305 | 77.30190 | 33080 ft | 482 kts | 93° |
| 2026-05-05 14:11 | 47.29785 | 77.40034 | 33068 ft | 482 kts | 94° |
| 2026-05-05 14:12 | 47.29248 | 77.49811 | 33083 ft | 481 kts | 93° |
| 2026-05-05 14:12 | 47.28699 | 77.59618 | 33072 ft | 480 kts | 93° |
| 2026-05-05 14:13 | 47.28144 | 77.69444 | 33080 ft | 480 kts | 94° |
| 2026-05-05 14:13 | 47.27577 | 77.79255 | 33084 ft | 480 kts | 94° |
| 2026-05-05 14:14 | 47.27002 | 77.89074 | 33087 ft | 481 kts | 94° |
| 2026-05-05 14:14 | 47.26423 | 77.98833 | 33075 ft | 481 kts | 94° |
| 2026-05-05 14:15 | 47.25832 | 78.08703 | 33084 ft | 481 kts | 94° |
| 2026-05-05 14:15 | 47.25233 | 78.18511 | 33082 ft | 481 kts | 94° |
| 2026-05-05 14:16 | 47.24630 | 78.28248 | 33087 ft | 481 kts | 94° |
| 2026-05-05 14:16 | 47.24014 | 78.38045 | 33085 ft | 480 kts | 94° |
| 2026-05-05 14:17 | 47.23392 | 78.47830 | 33081 ft | 481 kts | 94° |
| 2026-05-05 14:17 | 47.22760 | 78.57631 | 33077 ft | 480 kts | 94° |
| 2026-05-05 14:18 | 47.22120 | 78.67429 | 33077 ft | 480 kts | 94° |
| 2026-05-05 14:18 | 47.21472 | 78.77216 | 33078 ft | 480 kts | 94° |
| 2026-05-05 14:19 | 47.20821 | 78.86928 | 33077 ft | 481 kts | 94° |
| 2026-05-05 14:19 | 47.20155 | 78.96729 | 33077 ft | 481 kts | 94° |
| 2026-05-05 14:20 | 47.19482 | 79.06529 | 33071 ft | 482 kts | 94° |
| 2026-05-05 14:20 | 47.18911 | 79.14747 | 33071 ft | 482 kts | 94° |
| 2026-05-05 14:21 | 47.18218 | 79.24483 | 33079 ft | 482 kts | 94° |
| 2026-05-05 14:21 | 47.17506 | 79.34291 | 33068 ft | 483 kts | 94° |
| 2026-05-05 14:22 | 47.16787 | 79.44111 | 33069 ft | 483 kts | 94° |
| 2026-05-05 14:22 | 47.16061 | 79.53926 | 33068 ft | 483 kts | 94° |
| 2026-05-05 14:23 | 47.15327 | 79.63734 | 33066 ft | 483 kts | 94° |
| 2026-05-05 14:23 | 47.14586 | 79.73533 | 33066 ft | 483 kts | 94° |
| 2026-05-05 14:24 | 47.13841 | 79.83284 | 33069 ft | 483 kts | 94° |
| 2026-05-05 14:24 | 47.13087 | 79.93074 | 33067 ft | 482 kts | 94° |
| 2026-05-05 14:25 | 47.12336 | 80.02861 | 33070 ft | 482 kts | 94° |
| 2026-05-05 14:25 | 47.11579 | 80.12634 | 33077 ft | 481 kts | 94° |
| 2026-05-05 14:26 | 47.10813 | 80.22401 | 33066 ft | 481 kts | 94° |
| 2026-05-05 14:26 | 47.10043 | 80.32099 | 33069 ft | 481 kts | 94° |
| 2026-05-05 14:27 | 47.09261 | 80.41844 | 33071 ft | 480 kts | 94° |
| 2026-05-05 14:27 | 47.08472 | 80.51573 | 33087 ft | 480 kts | 94° |
| 2026-05-05 14:28 | 47.07675 | 80.61294 | 33077 ft | 480 kts | 94° |
| 2026-05-05 14:28 | 47.06870 | 80.71009 | 33076 ft | 479 kts | 94° |
| 2026-05-05 14:29 | 47.06058 | 80.80717 | 33077 ft | 479 kts | 94° |
| 2026-05-05 14:29 | 47.05238 | 80.90419 | 33080 ft | 479 kts | 94° |
| 2026-05-05 14:30 | 47.04411 | 81.00113 | 33091 ft | 479 kts | 94° |
| 2026-05-05 14:30 | 47.03574 | 81.09809 | 33078 ft | 479 kts | 94° |
| 2026-05-05 14:31 | 47.02736 | 81.19443 | 33080 ft | 479 kts | 94° |
| 2026-05-05 14:31 | 47.01883 | 81.29158 | 33085 ft | 480 kts | 94° |
| 2026-05-05 14:32 | 47.01025 | 81.38847 | 33082 ft | 480 kts | 94° |
| 2026-05-05 14:32 | 47.00157 | 81.48548 | 33090 ft | 480 kts | 94° |
| 2026-05-05 14:33 | 46.99282 | 81.58228 | 33089 ft | 480 kts | 94° |
| 2026-05-05 14:33 | 46.98398 | 81.67915 | 33080 ft | 480 kts | 95° |
| 2026-05-05 14:34 | 46.97511 | 81.77544 | 33095 ft | 479 kts | 95° |
| 2026-05-05 14:34 | 46.96612 | 81.87230 | 33095 ft | 480 kts | 95° |
| 2026-05-05 14:35 | 46.95701 | 81.96916 | 33098 ft | 479 kts | 95° |
| 2026-05-05 14:35 | 46.94765 | 82.06592 | 33095 ft | 480 kts | 95° |
| 2026-05-05 14:36 | 46.93822 | 82.16258 | 33102 ft | 479 kts | 95° |
| 2026-05-05 14:36 | 46.92879 | 82.25854 | 33109 ft | 479 kts | 95° |
| 2026-05-05 14:37 | 46.91924 | 82.35515 | 33111 ft | 479 kts | 95° |
| 2026-05-05 14:37 | 46.90961 | 82.45156 | 33111 ft | 479 kts | 95° |
| 2026-05-05 14:38 | 46.89991 | 82.54790 | 33112 ft | 478 kts | 95° |
| 2026-05-05 14:38 | 46.89014 | 82.64409 | 33120 ft | 478 kts | 95° |
| 2026-05-05 14:39 | 46.88032 | 82.74010 | 33109 ft | 478 kts | 95° |
| 2026-05-05 14:39 | 46.86983 | 82.83607 | 33108 ft | 479 kts | 99° |
| 2026-05-05 14:40 | 46.84753 | 82.92763 | 33118 ft | 484 kts | 113° |
| 2026-05-05 14:40 | 46.81268 | 83.01232 | 33122 ft | 487 kts | 120° |
| 2026-05-05 14:41 | 46.77598 | 83.09556 | 33122 ft | 487 kts | 120° |
| 2026-05-05 14:41 | 46.73974 | 83.17906 | 33099 ft | 487 kts | 119° |
| 2026-05-05 14:42 | 46.70366 | 83.26267 | 33111 ft | 487 kts | 119° |
| 2026-05-05 14:42 | 46.66746 | 83.34624 | 33104 ft | 487 kts | 119° |
| 2026-05-05 14:43 | 46.62913 | 83.42707 | 33116 ft | 488 kts | 123° |
| 2026-05-05 14:43 | 46.58881 | 83.50671 | 33103 ft | 489 kts | 123° |
| 2026-05-05 14:44 | 46.54846 | 83.58636 | 33106 ft | 489 kts | 123° |
| 2026-05-05 14:44 | 46.50831 | 83.66593 | 33102 ft | 488 kts | 122° |
| 2026-05-05 14:45 | 46.46814 | 83.74545 | 33110 ft | 488 kts | 123° |
| 2026-05-05 14:45 | 46.42789 | 83.82489 | 33113 ft | 488 kts | 123° |
| 2026-05-05 14:46 | 46.38763 | 83.90409 | 33126 ft | 488 kts | 122° |
| 2026-05-05 14:46 | 46.34763 | 83.98255 | 33127 ft | 487 kts | 123° |
| 2026-05-05 14:47 | 46.30728 | 84.06151 | 33136 ft | 488 kts | 122° |
| 2026-05-05 14:47 | 46.26694 | 84.14025 | 33132 ft | 487 kts | 122° |
| 2026-05-05 14:48 | 46.22639 | 84.21879 | 33139 ft | 487 kts | 123° |
| 2026-05-05 14:48 | 46.18571 | 84.29707 | 33128 ft | 487 kts | 122° |
| 2026-05-05 14:49 | 46.14500 | 84.37530 | 33121 ft | 487 kts | 122° |
| 2026-05-05 14:49 | 46.10428 | 84.45336 | 33123 ft | 487 kts | 122° |
| 2026-05-05 14:50 | 46.06344 | 84.53148 | 33100 ft | 487 kts | 122° |
| 2026-05-05 14:50 | 46.02281 | 84.60896 | 33079 ft | 487 kts | 122° |
| 2026-05-05 14:51 | 45.98196 | 84.68667 | 33086 ft | 486 kts | 122° |
| 2026-05-05 14:51 | 45.94117 | 84.76405 | 33079 ft | 485 kts | 122° |
| 2026-05-05 14:52 | 45.90032 | 84.84129 | 33075 ft | 485 kts | 122° |
| 2026-05-05 14:52 | 45.85977 | 84.91779 | 33087 ft | 484 kts | 122° |
| 2026-05-05 14:53 | 45.81895 | 84.99461 | 33065 ft | 484 kts | 121° |
| 2026-05-05 14:53 | 45.77808 | 85.07128 | 33057 ft | 483 kts | 122° |
| 2026-05-05 14:54 | 45.73727 | 85.14767 | 33049 ft | 483 kts | 122° |
| 2026-05-05 14:54 | 45.69638 | 85.22400 | 33058 ft | 482 kts | 122° |
| 2026-05-05 14:55 | 45.65562 | 85.30017 | 33061 ft | 482 kts | 121° |
| 2026-05-05 14:55 | 45.61487 | 85.37641 | 33056 ft | 482 kts | 121° |
| 2026-05-05 14:56 | 45.57429 | 85.45211 | 33048 ft | 483 kts | 121° |
| 2026-05-05 14:56 | 45.53339 | 85.52820 | 33050 ft | 483 kts | 121° |
| 2026-05-05 14:57 | 45.49240 | 85.60421 | 33062 ft | 483 kts | 121° |
| 2026-05-05 14:57 | 45.45139 | 85.68006 | 33059 ft | 483 kts | 121° |
| 2026-05-05 14:58 | 45.41058 | 85.75532 | 33054 ft | 483 kts | 121° |
| 2026-05-05 14:58 | 45.36942 | 85.83105 | 33059 ft | 483 kts | 121° |
| 2026-05-05 14:59 | 45.32816 | 85.90675 | 33056 ft | 483 kts | 121° |
| 2026-05-05 14:59 | 45.28686 | 85.98233 | 33069 ft | 483 kts | 122° |
| 2026-05-05 15:00 | 45.25255 | 86.04496 | 33056 ft | 483 kts | 122° |
| 2026-05-05 15:00 | 45.20449 | 86.13245 | 33063 ft | 483 kts | 122° |
| 2026-05-05 15:01 | 45.16319 | 86.20743 | 33070 ft | 483 kts | 122° |
| 2026-05-05 15:01 | 45.12180 | 86.28237 | 33066 ft | 482 kts | 122° |
| 2026-05-05 15:02 | 45.08037 | 86.35718 | 33066 ft | 482 kts | 122° |
| 2026-05-05 15:02 | 45.03919 | 86.43137 | 33068 ft | 481 kts | 122° |
| 2026-05-05 15:03 | 44.99779 | 86.50575 | 33073 ft | 481 kts | 122° |
| 2026-05-05 15:03 | 44.95635 | 86.58002 | 33094 ft | 481 kts | 123° |
| 2026-05-05 15:04 | 44.91487 | 86.65417 | 33069 ft | 481 kts | 123° |
| 2026-05-05 15:04 | 44.87339 | 86.72812 | 33092 ft | 480 kts | 123° |
| 2026-05-05 15:05 | 44.81134 | 86.83803 | 33073 ft | 479 kts | 124° |
| 2026-05-05 15:06 | 44.76921 | 86.91108 | 33079 ft | 479 kts | 124° |
| 2026-05-05 15:06 | 44.72719 | 86.98397 | 33094 ft | 479 kts | 126° |
| 2026-05-05 15:07 | 44.69221 | 87.04463 | 33088 ft | 480 kts | 126° |
| 2026-05-05 15:07 | 44.64321 | 87.12954 | 33089 ft | 481 kts | 126° |
| 2026-05-05 15:08 | 44.60786 | 87.19066 | 33089 ft | 482 kts | 126° |
| 2026-05-05 15:08 | 44.56586 | 87.26313 | 33084 ft | 482 kts | 127° |
| 2026-05-05 15:09 | 44.52404 | 87.33681 | 33107 ft | 482 kts | 126° |
| 2026-05-05 15:09 | 44.48349 | 87.41208 | 33090 ft | 485 kts | 126° |
| 2026-05-05 15:10 | 44.44261 | 87.48736 | 33091 ft | 486 kts | 126° |
| 2026-05-05 15:10 | 44.40140 | 87.56255 | 33098 ft | 487 kts | 126° |
| 2026-05-05 15:11 | 44.35999 | 87.63777 | 33092 ft | 489 kts | 127° |
| 2026-05-05 15:11 | 44.31887 | 87.71268 | 33111 ft | 490 kts | 127° |
| 2026-05-05 15:12 | 44.27777 | 87.78908 | 33110 ft | 492 kts | 127° |
| 2026-05-05 15:12 | 44.23667 | 87.86558 | 33111 ft | 493 kts | 127° |
| 2026-05-05 15:13 | 44.19630 | 87.94278 | 33095 ft | 491 kts | 118° |
| 2026-05-05 15:13 | 44.18394 | 87.98693 | 33106 ft | 489 kts | 100° |
| 2026-05-05 15:13 | 44.18068 | 88.03389 | 33129 ft | 487 kts | 85° |
| 2026-05-05 15:13 | 44.18575 | 88.08021 | 33143 ft | 482 kts | 74° |
| 2026-05-05 15:14 | 44.19345 | 88.12575 | 33139 ft | 486 kts | 75° |
| 2026-05-05 15:14 | 44.20820 | 88.21823 | 33143 ft | 491 kts | 76° |
| 2026-05-05 15:15 | 44.22226 | 88.31136 | 33100 ft | 488 kts | 76° |
| 2026-05-05 15:15 | 44.23574 | 88.40295 | 33110 ft | 484 kts | 76° |
| 2026-05-05 15:16 | 44.24924 | 88.49493 | 33126 ft | 484 kts | 76° |
| 2026-05-05 15:16 | 44.26269 | 88.58719 | 33119 ft | 485 kts | 76° |
| 2026-05-05 15:17 | 44.27611 | 88.67973 | 33113 ft | 486 kts | 76° |
| 2026-05-05 15:17 | 44.28949 | 88.77242 | 33113 ft | 487 kts | 77° |
| 2026-05-05 15:18 | 44.30273 | 88.86465 | 33105 ft | 488 kts | 77° |
| 2026-05-05 15:18 | 44.31604 | 88.95785 | 33094 ft | 490 kts | 77° |
| 2026-05-05 15:19 | 44.32932 | 89.05150 | 33093 ft | 492 kts | 77° |
| 2026-05-05 15:19 | 44.34251 | 89.14525 | 33091 ft | 493 kts | 77° |
| 2026-05-05 15:20 | 44.35567 | 89.23934 | 33095 ft | 493 kts | 77° |
| 2026-05-05 15:20 | 44.36878 | 89.33360 | 33088 ft | 494 kts | 77° |
| 2026-05-05 15:21 | 44.38185 | 89.42818 | 33085 ft | 495 kts | 77° |
| 2026-05-05 15:21 | 44.39478 | 89.52228 | 33085 ft | 496 kts | 77° |
| 2026-05-05 15:22 | 44.40769 | 89.61711 | 33084 ft | 496 kts | 78° |
| 2026-05-05 15:22 | 44.40992 | 89.71376 | 33079 ft | 499 kts | 96° |
| 2026-05-05 15:23 | 44.39447 | 89.80816 | 33083 ft | 498 kts | 107° |
| 2026-05-05 15:23 | 44.37350 | 89.90051 | 33084 ft | 498 kts | 107° |
| 2026-05-05 15:24 | 44.35271 | 89.99307 | 33087 ft | 498 kts | 107° |
| 2026-05-05 15:24 | 44.33244 | 90.08506 | 33077 ft | 499 kts | 107° |
| 2026-05-05 15:25 | 44.31204 | 90.17789 | 33082 ft | 500 kts | 107° |
| 2026-05-05 15:25 | 44.29155 | 90.27077 | 33088 ft | 501 kts | 107° |
| 2026-05-05 15:26 | 44.27090 | 90.36378 | 33088 ft | 501 kts | 107° |
| 2026-05-05 15:26 | 44.25014 | 90.45689 | 33083 ft | 502 kts | 108° |
| 2026-05-05 15:27 | 44.22940 | 90.54949 | 33094 ft | 503 kts | 108° |
| 2026-05-05 15:27 | 44.20843 | 90.64271 | 33089 ft | 504 kts | 108° |
| 2026-05-05 15:28 | 44.18732 | 90.73615 | 33100 ft | 506 kts | 108° |
| 2026-05-05 15:28 | 44.16605 | 90.82994 | 33090 ft | 508 kts | 108° |
| 2026-05-05 15:29 | 44.14470 | 90.92368 | 33170 ft | 507 kts | 108° |
| 2026-05-05 15:29 | 44.12327 | 91.01736 | 33282 ft | 508 kts | 108° |
| 2026-05-05 15:30 | 44.10193 | 91.11051 | 33398 ft | 509 kts | 108° |
| 2026-05-05 15:30 | 44.08041 | 91.20447 | 33506 ft | 510 kts | 109° |
| 2026-05-05 15:31 | 44.05871 | 91.29882 | 33623 ft | 512 kts | 109° |
| 2026-05-05 15:31 | 44.03692 | 91.39316 | 33735 ft | 513 kts | 109° |
| 2026-05-05 15:32 | 44.01489 | 91.48754 | 33820 ft | 514 kts | 109° |
| 2026-05-05 15:32 | 43.99250 | 91.58175 | 33925 ft | 513 kts | 110° |
| 2026-05-05 15:33 | 43.97057 | 91.67406 | 33933 ft | 504 kts | 110° |
| 2026-05-05 15:33 | 43.95971 | 91.71985 | 34071 ft | 498 kts | 110° |
| 2026-05-05 15:33 | 43.94879 | 91.76564 | 34184 ft | 502 kts | 110° |
| 2026-05-05 15:34 | 43.92650 | 91.85851 | 34253 ft | 511 kts | 110° |
| 2026-05-05 15:34 | 43.90386 | 91.95258 | 34490 ft | 516 kts | 111° |
| 2026-05-05 15:34 | 43.89248 | 91.99978 | 34723 ft | 517 kts | 111° |
| 2026-05-05 15:35 | 43.88106 | 92.04703 | 34949 ft | 518 kts | 111° |
| 2026-05-05 15:35 | 43.86955 | 92.09457 | 35057 ft | 521 kts | 111° |
| 2026-05-05 15:35 | 43.85795 | 92.14237 | 35101 ft | 524 kts | 111° |
| 2026-05-05 15:36 | 43.83467 | 92.23804 | 35135 ft | 521 kts | 111° |
| 2026-05-05 15:36 | 43.81166 | 92.33223 | 35114 ft | 519 kts | 111° |
| 2026-05-05 15:37 | 43.78833 | 92.42677 | 35132 ft | 519 kts | 111° |
| 2026-05-05 15:37 | 43.76500 | 92.52189 | 35143 ft | 523 kts | 111° |
| 2026-05-05 15:38 | 43.74138 | 92.61740 | 35133 ft | 526 kts | 112° |
| 2026-05-05 15:38 | 43.71752 | 92.71336 | 35117 ft | 529 kts | 112° |
| 2026-05-05 15:39 | 43.69344 | 92.80983 | 35127 ft | 531 kts | 112° |
| 2026-05-05 15:39 | 43.66927 | 92.90636 | 35134 ft | 532 kts | 112° |
| 2026-05-05 15:40 | 43.64498 | 93.00310 | 35132 ft | 532 kts | 111° |
| 2026-05-05 15:40 | 43.62169 | 93.09949 | 35129 ft | 533 kts | 111° |
| 2026-05-05 15:41 | 43.59866 | 93.19667 | 35134 ft | 532 kts | 111° |
| 2026-05-05 15:41 | 43.57548 | 93.29371 | 35126 ft | 532 kts | 111° |
| 2026-05-05 15:42 | 43.55213 | 93.39046 | 35142 ft | 531 kts | 111° |
| 2026-05-05 15:42 | 43.52868 | 93.48698 | 35133 ft | 531 kts | 111° |
| 2026-05-05 15:43 | 43.50524 | 93.58309 | 35139 ft | 531 kts | 111° |
| 2026-05-05 15:43 | 43.48145 | 93.68024 | 35142 ft | 532 kts | 111° |
| 2026-05-05 15:44 | 43.45791 | 93.77603 | 35134 ft | 532 kts | 111° |
| 2026-05-05 15:44 | 43.43409 | 93.87252 | 35131 ft | 533 kts | 112° |
| 2026-05-05 15:45 | 43.41010 | 93.96924 | 35134 ft | 534 kts | 112° |
| 2026-05-05 15:45 | 43.38608 | 94.06604 | 35140 ft | 534 kts | 112° |
| 2026-05-05 15:46 | 43.36182 | 94.16280 | 35149 ft | 535 kts | 112° |
| 2026-05-05 15:46 | 43.33763 | 94.25908 | 35133 ft | 536 kts | 112° |
| 2026-05-05 15:47 | 43.31339 | 94.35607 | 35145 ft | 538 kts | 111° |
| 2026-05-05 15:47 | 43.29036 | 94.45313 | 35144 ft | 536 kts | 111° |
| 2026-05-05 15:48 | 43.26757 | 94.55044 | 35142 ft | 536 kts | 111° |
| 2026-05-05 15:48 | 43.24447 | 94.64789 | 35124 ft | 537 kts | 111° |
| 2026-05-05 15:49 | 43.22126 | 94.74473 | 35111 ft | 537 kts | 111° |
| 2026-05-05 15:49 | 43.19786 | 94.84182 | 35147 ft | 535 kts | 111° |
| 2026-05-05 15:50 | 43.17443 | 94.93861 | 35189 ft | 535 kts | 111° |
| 2026-05-05 15:50 | 43.15084 | 95.03563 | 35168 ft | 538 kts | 112° |
| 2026-05-05 15:51 | 43.12712 | 95.13286 | 35177 ft | 539 kts | 112° |
| 2026-05-05 15:51 | 43.10730 | 95.21383 | 35169 ft | 540 kts | 112° |
| 2026-05-05 15:52 | 43.07949 | 95.32693 | 35162 ft | 539 kts | 112° |
| 2026-05-05 15:52 | 43.05543 | 95.42394 | 35169 ft | 539 kts | 113° |
| 2026-05-05 15:53 | 43.03531 | 95.50544 | 35148 ft | 540 kts | 113° |
| 2026-05-05 15:53 | 43.01113 | 95.60274 | 35144 ft | 541 kts | 113° |
| 2026-05-05 15:54 | 42.98691 | 95.69953 | 35141 ft | 541 kts | 113° |
| 2026-05-05 15:54 | 42.96227 | 95.79676 | 35115 ft | 539 kts | 116° |
| 2026-05-05 15:55 | 42.93671 | 95.89350 | 35136 ft | 545 kts | 114° |
| 2026-05-05 15:55 | 42.91262 | 95.99204 | 35136 ft | 549 kts | 114° |
| 2026-05-05 15:56 | 42.88806 | 96.09092 | 35095 ft | 547 kts | 114° |
| 2026-05-05 15:56 | 42.86332 | 96.18829 | 35033 ft | 540 kts | 115° |
| 2026-05-05 15:57 | 42.83853 | 96.28480 | 35142 ft | 540 kts | 115° |
| 2026-05-05 15:57 | 42.81361 | 96.38117 | 35067 ft | 542 kts | 115° |
| 2026-05-05 15:58 | 42.78860 | 96.47788 | 35103 ft | 540 kts | 115° |
| 2026-05-05 15:58 | 42.76355 | 96.57443 | 35119 ft | 541 kts | 115° |
| 2026-05-05 15:59 | 42.73838 | 96.67108 | 35138 ft | 540 kts | 115° |
| 2026-05-05 15:59 | 42.71320 | 96.76738 | 35126 ft | 540 kts | 115° |
| 2026-05-05 16:00 | 42.68810 | 96.86296 | 35115 ft | 539 kts | 115° |
| 2026-05-05 16:00 | 42.66279 | 96.95894 | 35121 ft | 538 kts | 115° |
| 2026-05-05 16:01 | 42.63764 | 97.05398 | 35123 ft | 537 kts | 115° |
| 2026-05-05 16:01 | 42.61230 | 97.14929 | 35118 ft | 536 kts | 115° |
| 2026-05-05 16:02 | 42.58687 | 97.24459 | 35104 ft | 535 kts | 116° |
| 2026-05-05 16:02 | 42.56151 | 97.33927 | 35106 ft | 533 kts | 116° |
| 2026-05-05 16:03 | 42.53635 | 97.43290 | 35104 ft | 531 kts | 116° |
| 2026-05-05 16:03 | 42.51095 | 97.52702 | 35107 ft | 530 kts | 116° |
| 2026-05-05 16:04 | 42.48555 | 97.62073 | 35106 ft | 529 kts | 116° |
| 2026-05-05 16:04 | 42.46011 | 97.71424 | 35104 ft | 529 kts | 116° |
| 2026-05-05 16:05 | 42.43459 | 97.80769 | 35103 ft | 529 kts | 116° |
| 2026-05-05 16:05 | 42.40895 | 97.90126 | 35098 ft | 530 kts | 116° |
| 2026-05-05 16:06 | 42.38334 | 97.99435 | 35077 ft | 531 kts | 116° |
| 2026-05-05 16:06 | 42.35748 | 98.08803 | 35090 ft | 532 kts | 116° |
| 2026-05-05 16:07 | 42.33152 | 98.18179 | 35096 ft | 532 kts | 116° |
| 2026-05-05 16:07 | 42.30625 | 98.27597 | 35087 ft | 536 kts | 111° |
| 2026-05-05 16:08 | 42.29082 | 98.37506 | 35079 ft | 543 kts | 100° |
| 2026-05-05 16:08 | 42.28550 | 98.47714 | 35087 ft | 544 kts | 97° |
| 2026-05-05 16:09 | 42.28097 | 98.57843 | 35084 ft | 544 kts | 97° |
| 2026-05-05 16:09 | 42.27591 | 98.68029 | 35083 ft | 543 kts | 97° |
| 2026-05-05 16:10 | 42.27044 | 98.78197 | 35076 ft | 543 kts | 98° |
| 2026-05-05 16:10 | 42.26481 | 98.88362 | 35086 ft | 543 kts | 98° |
| 2026-05-05 16:11 | 42.25918 | 98.98418 | 35077 ft | 543 kts | 98° |
| 2026-05-05 16:12 | 42.24757 | 99.18761 | 35077 ft | 544 kts | 98° |
| 2026-05-05 16:13 | 42.23258 | 99.44186 | 35068 ft | 546 kts | 98° |
| 2026-05-05 16:13 | 42.22637 | 99.54420 | 35070 ft | 548 kts | 98° |
| 2026-05-05 16:14 | 42.21364 | 99.74961 | 35064 ft | 550 kts | 98° |
| 2026-05-05 16:15 | 42.20056 | 99.95493 | 35070 ft | 552 kts | 98° |
| 2026-05-05 16:16 | 42.18701 | 100.16158 | 35063 ft | 554 kts | 98° |
| 2026-05-05 16:17 | 42.17660 | 100.31669 | 35056 ft | 553 kts | 98° |
| 2026-05-05 16:18 | 42.16604 | 100.47074 | 35061 ft | 551 kts | 98° |
| 2026-05-05 16:19 | 42.15526 | 100.62485 | 35067 ft | 551 kts | 98° |
| 2026-05-05 16:19 | 42.14425 | 100.77947 | 35064 ft | 553 kts | 98° |
| 2026-05-05 16:20 | 42.12922 | 100.98553 | 35055 ft | 555 kts | 99° |
| 2026-05-05 16:21 | 42.11446 | 101.08699 | 35069 ft | 549 kts | 111° |
| 2026-05-05 16:22 | 42.07620 | 101.23140 | 35048 ft | 546 kts | 115° |
| 2026-05-05 16:23 | 42.02495 | 101.42403 | 35060 ft | 547 kts | 115° |
| 2026-05-05 16:23 | 41.98668 | 101.56896 | 35057 ft | 547 kts | 115° |
| 2026-05-05 16:24 | 41.96123 | 101.66468 | 35063 ft | 547 kts | 115° |
| 2026-05-05 16:25 | 41.92257 | 101.80925 | 35058 ft | 548 kts | 115° |
| 2026-05-05 16:25 | 41.88371 | 101.95373 | 35060 ft | 548 kts | 115° |
| 2026-05-05 16:26 | 41.83175 | 102.14562 | 35053 ft | 549 kts | 115° |
| 2026-05-05 16:27 | 41.80554 | 102.24184 | 35059 ft | 550 kts | 115° |
| 2026-05-05 16:27 | 41.77922 | 102.33808 | 35053 ft | 550 kts | 115° |
| 2026-05-05 16:28 | 41.75278 | 102.43443 | 35049 ft | 551 kts | 115° |
| 2026-05-05 16:28 | 41.72622 | 102.53081 | 35045 ft | 552 kts | 115° |
| 2026-05-05 16:29 | 41.69955 | 102.62731 | 35037 ft | 552 kts | 115° |
| 2026-05-05 16:29 | 41.67278 | 102.72374 | 35048 ft | 553 kts | 115° |
| 2026-05-05 16:30 | 41.64601 | 102.81966 | 35036 ft | 554 kts | 115° |
| 2026-05-05 16:30 | 41.61900 | 102.91616 | 35044 ft | 554 kts | 115° |
| 2026-05-05 16:31 | 41.59196 | 103.01245 | 35041 ft | 553 kts | 115° |
| 2026-05-05 16:31 | 41.56473 | 103.10859 | 35042 ft | 553 kts | 115° |
| 2026-05-05 16:32 | 41.53742 | 103.20459 | 35034 ft | 552 kts | 115° |
| 2026-05-05 16:32 | 41.51032 | 103.29963 | 35035 ft | 551 kts | 115° |
| 2026-05-05 16:33 | 41.48301 | 103.39504 | 35031 ft | 549 kts | 115° |
| 2026-05-05 16:33 | 41.45570 | 103.49012 | 35033 ft | 548 kts | 115° |
| 2026-05-05 16:34 | 41.42834 | 103.58499 | 35031 ft | 548 kts | 115° |
| 2026-05-05 16:34 | 41.40103 | 103.67937 | 35029 ft | 548 kts | 115° |
| 2026-05-05 16:35 | 41.37348 | 103.77422 | 35033 ft | 549 kts | 115° |
| 2026-05-05 16:35 | 41.34582 | 103.86911 | 35012 ft | 548 kts | 115° |
| 2026-05-05 16:36 | 41.31838 | 103.96294 | 35021 ft | 547 kts | 115° |
| 2026-05-05 16:36 | 41.29072 | 104.05713 | 35028 ft | 546 kts | 116° |
| 2026-05-05 16:37 | 41.26301 | 104.15116 | 35027 ft | 545 kts | 116° |
| 2026-05-05 16:37 | 41.23523 | 104.24507 | 35020 ft | 545 kts | 116° |
| 2026-05-05 16:38 | 41.20758 | 104.33824 | 35025 ft | 545 kts | 116° |
| 2026-05-05 16:38 | 41.17969 | 104.43186 | 35021 ft | 545 kts | 116° |
| 2026-05-05 16:39 | 41.15172 | 104.52545 | 35015 ft | 545 kts | 116° |
| 2026-05-05 16:39 | 41.12369 | 104.61891 | 35020 ft | 545 kts | 116° |
| 2026-05-05 16:40 | 41.09556 | 104.71233 | 35022 ft | 545 kts | 117° |
| 2026-05-05 16:40 | 41.06557 | 104.80387 | 35010 ft | 543 kts | 119° |
| 2026-05-05 16:41 | 41.03940 | 104.87957 | 35015 ft | 543 kts | 120° |
| 2026-05-05 16:41 | 41.00795 | 104.97072 | 35000 ft | 543 kts | 119° |
| 2026-05-05 16:42 | 40.97687 | 105.06182 | 35006 ft | 542 kts | 118° |
| 2026-05-05 16:42 | 40.94595 | 105.15269 | 35011 ft | 541 kts | 118° |
| 2026-05-05 16:43 | 40.91521 | 105.24273 | 35004 ft | 541 kts | 119° |
| 2026-05-05 16:43 | 40.88416 | 105.33329 | 34989 ft | 540 kts | 119° |
| 2026-05-05 16:44 | 40.85304 | 105.42372 | 35001 ft | 540 kts | 119° |
| 2026-05-05 16:44 | 40.82186 | 105.51405 | 34985 ft | 540 kts | 119° |
| 2026-05-05 16:45 | 40.79054 | 105.60448 | 34972 ft | 541 kts | 119° |
| 2026-05-05 16:45 | 40.75935 | 105.69424 | 34969 ft | 542 kts | 119° |
| 2026-05-05 16:46 | 40.72779 | 105.78477 | 34956 ft | 544 kts | 119° |
| 2026-05-05 16:46 | 40.69603 | 105.87564 | 34962 ft | 546 kts | 119° |
| 2026-05-05 16:47 | 40.66416 | 105.96650 | 34951 ft | 547 kts | 119° |
| 2026-05-05 16:47 | 40.63209 | 106.05765 | 34931 ft | 549 kts | 119° |
| 2026-05-05 16:48 | 40.59980 | 106.14911 | 34928 ft | 552 kts | 119° |
| 2026-05-05 16:48 | 40.56730 | 106.24090 | 34915 ft | 553 kts | 119° |
| 2026-05-05 16:49 | 40.53485 | 106.33208 | 34916 ft | 555 kts | 119° |
| 2026-05-05 16:49 | 40.50210 | 106.42403 | 34900 ft | 555 kts | 118° |
| 2026-05-05 16:50 | 40.46929 | 106.51604 | 34898 ft | 555 kts | 119° |
| 2026-05-05 16:50 | 40.43636 | 106.60784 | 34895 ft | 555 kts | 119° |
| 2026-05-05 16:51 | 40.40337 | 106.69948 | 34885 ft | 554 kts | 119° |
| 2026-05-05 16:51 | 40.37040 | 106.79084 | 34893 ft | 553 kts | 119° |
| 2026-05-05 16:52 | 40.33749 | 106.88192 | 34892 ft | 552 kts | 117° |
| 2026-05-05 16:52 | 40.32438 | 106.92862 | 34882 ft | 556 kts | 106° |
| 2026-05-05 16:52 | 40.31735 | 106.97843 | 34899 ft | 557 kts | 96° |
| 2026-05-05 16:53 | 40.32020 | 107.07932 | 34909 ft | 553 kts | 78° |
| 2026-05-05 16:53 | 40.33402 | 107.17872 | 34912 ft | 555 kts | 77° |
| 2026-05-05 16:54 | 40.34745 | 107.27861 | 34890 ft | 557 kts | 78° |
| 2026-05-05 16:54 | 40.35998 | 107.37902 | 34907 ft | 558 kts | 79° |
| 2026-05-05 16:55 | 40.37219 | 107.47970 | 34900 ft | 559 kts | 79° |
| 2026-05-05 16:55 | 40.38429 | 107.57978 | 34883 ft | 559 kts | 79° |
| 2026-05-05 16:56 | 40.39643 | 107.68040 | 34880 ft | 558 kts | 79° |
| 2026-05-05 16:56 | 40.40850 | 107.78109 | 34889 ft | 558 kts | 79° |
| 2026-05-05 16:57 | 40.42047 | 107.88178 | 34885 ft | 558 kts | 79° |
| 2026-05-05 16:57 | 40.43234 | 107.98231 | 34882 ft | 557 kts | 79° |
| 2026-05-05 16:58 | 40.44403 | 108.08297 | 34878 ft | 557 kts | 79° |
| 2026-05-05 16:58 | 40.45555 | 108.18358 | 34873 ft | 557 kts | 79° |
| 2026-05-05 16:59 | 40.46694 | 108.28363 | 34876 ft | 557 kts | 79° |
| 2026-05-05 16:59 | 40.47832 | 108.38436 | 34881 ft | 557 kts | 79° |
| 2026-05-05 17:00 | 40.48964 | 108.48515 | 34898 ft | 558 kts | 79° |
| 2026-05-05 17:00 | 40.50089 | 108.58619 | 34866 ft | 559 kts | 79° |
| 2026-05-05 17:01 | 40.51206 | 108.68747 | 34870 ft | 560 kts | 79° |
| 2026-05-05 17:01 | 40.52316 | 108.78894 | 34869 ft | 561 kts | 79° |
| 2026-05-05 17:02 | 40.53412 | 108.88997 | 34850 ft | 562 kts | 79° |
| 2026-05-05 17:02 | 40.54508 | 108.99178 | 34853 ft | 562 kts | 79° |
| 2026-05-05 17:03 | 40.55595 | 109.09361 | 34851 ft | 562 kts | 79° |
| 2026-05-05 17:03 | 40.56672 | 109.19550 | 34840 ft | 562 kts | 79° |
| 2026-05-05 17:04 | 40.57742 | 109.29751 | 34864 ft | 562 kts | 79° |
| 2026-05-05 17:04 | 40.58793 | 109.39859 | 34853 ft | 561 kts | 79° |
| 2026-05-05 17:05 | 40.59842 | 109.50033 | 34845 ft | 560 kts | 79° |
| 2026-05-05 17:05 | 40.60880 | 109.60199 | 34858 ft | 560 kts | 79° |
| 2026-05-05 17:06 | 40.61909 | 109.70361 | 34852 ft | 559 kts | 79° |
| 2026-05-05 17:06 | 40.62928 | 109.80511 | 34850 ft | 559 kts | 79° |
| 2026-05-05 17:07 | 40.63931 | 109.90594 | 34855 ft | 558 kts | 79° |
| 2026-05-05 17:07 | 40.64771 | 110.00780 | 34857 ft | 561 kts | 86° |
| 2026-05-05 17:08 | 40.64725 | 110.11071 | 34858 ft | 563 kts | 90° |
| 2026-05-05 17:08 | 40.64582 | 110.21390 | 34846 ft | 564 kts | 89° |
| 2026-05-05 17:09 | 40.64500 | 110.31735 | 34856 ft | 565 kts | 89° |
| 2026-05-05 17:09 | 40.64434 | 110.42092 | 34860 ft | 566 kts | 89° |
| 2026-05-05 17:10 | 40.64351 | 110.52406 | 34859 ft | 567 kts | 89° |
| 2026-05-05 17:10 | 40.64253 | 110.62772 | 34857 ft | 565 kts | 89° |
| 2026-05-05 17:11 | 40.64150 | 110.73126 | 34871 ft | 566 kts | 89° |
| 2026-05-05 17:11 | 40.64028 | 110.83496 | 34837 ft | 567 kts | 89° |
| 2026-05-05 17:12 | 40.63922 | 110.93834 | 34856 ft | 563 kts | 89° |
| 2026-05-05 17:12 | 40.63795 | 111.04137 | 34844 ft | 561 kts | 89° |
| 2026-05-05 17:13 | 40.63655 | 111.14408 | 34868 ft | 561 kts | 89° |
| 2026-05-05 17:13 | 40.63510 | 111.24621 | 34858 ft | 561 kts | 89° |
| 2026-05-05 17:14 | 40.63356 | 111.34909 | 34852 ft | 562 kts | 89° |
| 2026-05-05 17:14 | 40.63193 | 111.45225 | 34848 ft | 564 kts | 89° |
| 2026-05-05 17:15 | 40.63021 | 111.55562 | 34846 ft | 565 kts | 89° |
| 2026-05-05 17:15 | 40.62839 | 111.65927 | 34854 ft | 566 kts | 89° |
| 2026-05-05 17:16 | 40.62647 | 111.76283 | 34854 ft | 566 kts | 90° |
| 2026-05-05 17:16 | 40.62449 | 111.86570 | 34845 ft | 565 kts | 90° |
| 2026-05-05 17:17 | 40.62324 | 111.96892 | 34846 ft | 563 kts | 89° |
| 2026-05-05 17:17 | 40.62032 | 112.07203 | 34856 ft | 562 kts | 91° |
| 2026-05-05 17:18 | 40.61769 | 112.17476 | 34848 ft | 561 kts | 90° |
| 2026-05-05 17:18 | 40.61547 | 112.27744 | 34882 ft | 560 kts | 90° |
| 2026-05-05 17:19 | 40.61301 | 112.37936 | 34866 ft | 560 kts | 90° |
| 2026-05-05 17:19 | 40.61044 | 112.48185 | 34854 ft | 560 kts | 90° |
| 2026-05-05 17:20 | 40.60631 | 112.58426 | 34864 ft | 560 kts | 93° |
| 2026-05-05 17:20 | 40.59964 | 112.68598 | 34863 ft | 561 kts | 93° |
| 2026-05-05 17:21 | 40.59289 | 112.78840 | 34877 ft | 562 kts | 95° |
| 2026-05-05 17:22 | 40.58119 | 112.94218 | 34852 ft | 564 kts | 93° |
| 2026-05-05 17:22 | 40.57468 | 113.04494 | 34845 ft | 563 kts | 93° |
| 2026-05-05 17:23 | 40.56793 | 113.14775 | 34841 ft | 564 kts | 93° |
| 2026-05-05 17:23 | 40.56087 | 113.25053 | 34841 ft | 564 kts | 93° |
| 2026-05-05 17:24 | 40.55367 | 113.35319 | 34850 ft | 564 kts | 93° |
| 2026-05-05 17:24 | 40.54640 | 113.45582 | 34833 ft | 563 kts | 94° |
| 2026-05-05 17:25 | 40.53911 | 113.55760 | 34830 ft | 562 kts | 93° |
| 2026-05-05 17:25 | 40.53171 | 113.65972 | 34845 ft | 561 kts | 94° |
| 2026-05-05 17:26 | 40.52421 | 113.76184 | 34816 ft | 561 kts | 94° |
| 2026-05-05 17:26 | 40.51665 | 113.86377 | 34820 ft | 558 kts | 94° |
| 2026-05-05 17:27 | 40.50902 | 113.96540 | 34808 ft | 558 kts | 94° |
| 2026-05-05 17:27 | 40.50251 | 114.06710 | 34803 ft | 558 kts | 91° |
| 2026-05-05 17:28 | 40.49875 | 114.16821 | 34814 ft | 557 kts | 90° |
| 2026-05-05 17:28 | 40.49508 | 114.26992 | 34806 ft | 558 kts | 90° |
| 2026-05-05 17:29 | 40.49154 | 114.35467 | 34812 ft | 558 kts | 91° |
| 2026-05-05 17:29 | 40.48690 | 114.45646 | 34801 ft | 558 kts | 91° |
| 2026-05-05 17:30 | 40.48216 | 114.55819 | 34806 ft | 558 kts | 91° |
| 2026-05-05 17:30 | 40.47739 | 114.65992 | 34804 ft | 558 kts | 91° |
| 2026-05-05 17:31 | 40.47255 | 114.76164 | 34802 ft | 558 kts | 91° |
| 2026-05-05 17:31 | 40.46765 | 114.86325 | 34796 ft | 557 kts | 91° |
| 2026-05-05 17:32 | 40.46260 | 114.96467 | 34798 ft | 556 kts | 91° |
| 2026-05-05 17:32 | 40.45750 | 115.06608 | 34800 ft | 557 kts | 91° |
| 2026-05-05 17:33 | 40.45235 | 115.16694 | 34781 ft | 557 kts | 91° |
| 2026-05-05 17:33 | 40.44708 | 115.26822 | 34809 ft | 555 kts | 91° |
| 2026-05-05 17:34 | 40.44173 | 115.36934 | 34811 ft | 555 kts | 91° |
| 2026-05-05 17:34 | 40.43630 | 115.47054 | 34810 ft | 555 kts | 91° |
| 2026-05-05 17:35 | 40.43050 | 115.57098 | 34804 ft | 556 kts | 92° |
| 2026-05-05 17:35 | 40.42239 | 115.67220 | 34812 ft | 557 kts | 94° |
| 2026-05-05 17:36 | 40.41368 | 115.77312 | 34816 ft | 556 kts | 93° |
| 2026-05-05 17:36 | 40.40518 | 115.87419 | 34811 ft | 556 kts | 93° |
| 2026-05-05 17:37 | 40.39686 | 115.97508 | 34808 ft | 556 kts | 93° |
| 2026-05-05 17:37 | 40.38851 | 116.07564 | 34808 ft | 558 kts | 92° |
| 2026-05-05 17:38 | 40.37996 | 116.17695 | 34800 ft | 559 kts | 93° |
| 2026-05-05 17:38 | 40.37126 | 116.27825 | 34788 ft | 559 kts | 92° |
| 2026-05-05 17:39 | 40.36254 | 116.37952 | 34799 ft | 559 kts | 92° |
| 2026-05-05 17:39 | 40.35374 | 116.48083 | 34796 ft | 559 kts | 92° |
| 2026-05-05 17:40 | 40.34488 | 116.58145 | 34789 ft | 558 kts | 92° |
| 2026-05-05 17:40 | 40.33769 | 116.63146 | 34777 ft | 560 kts | 107° |
| 2026-05-05 17:40 | 40.32110 | 116.67758 | 34796 ft | 561 kts | 125° |
| 2026-05-05 17:40 | 40.29591 | 116.71627 | 34796 ft | 556 kts | 142° |
| 2026-05-05 17:41 | 40.26501 | 116.74597 | 34805 ft | 548 kts | 155° |
| 2026-05-05 17:41 | 40.23100 | 116.76748 | 34790 ft | 538 kts | 168° |
| 2026-05-05 17:41 | 40.19515 | 116.77820 | 34775 ft | 520 kts | 181° |
| 2026-05-05 17:42 | 40.12309 | 116.79023 | 34798 ft | 524 kts | 181° |
| 2026-05-05 17:42 | 40.05103 | 116.80345 | 34802 ft | 529 kts | 179° |
| 2026-05-05 17:43 | 39.97799 | 116.81808 | 34796 ft | 531 kts | 179° |
| 2026-05-05 17:43 | 39.90486 | 116.83288 | 34789 ft | 531 kts | 179° |
| 2026-05-05 17:44 | 39.83196 | 116.84745 | 34793 ft | 530 kts | 179° |
| 2026-05-05 17:44 | 39.76285 | 116.86132 | 34772 ft | 528 kts | 179° |
| 2026-05-05 17:45 | 39.69080 | 116.87630 | 34796 ft | 527 kts | 178° |
| 2026-05-05 17:45 | 39.61837 | 116.89143 | 34797 ft | 526 kts | 178° |
| 2026-05-05 17:46 | 39.54609 | 116.90641 | 34789 ft | 526 kts | 178° |
| 2026-05-05 17:46 | 39.47373 | 116.92131 | 34803 ft | 526 kts | 178° |
| 2026-05-05 17:47 | 39.40128 | 116.93622 | 34804 ft | 527 kts | 178° |
| 2026-05-05 17:47 | 39.32869 | 116.95112 | 34798 ft | 528 kts | 178° |
| 2026-05-05 17:48 | 39.25654 | 116.96593 | 34811 ft | 529 kts | 178° |
| 2026-05-05 17:48 | 39.18513 | 116.98975 | 34805 ft | 542 kts | 155° |
| 2026-05-05 17:48 | 39.15431 | 117.01823 | 34821 ft | 550 kts | 136° |
| 2026-05-05 17:49 | 39.13032 | 117.05661 | 34837 ft | 551 kts | 120° |
| 2026-05-05 17:49 | 39.11372 | 117.10089 | 34815 ft | 548 kts | 104° |
| 2026-05-05 17:49 | 39.10597 | 117.14847 | 34842 ft | 540 kts | 93° |
| 2026-05-05 17:50 | 39.09591 | 117.24472 | 34825 ft | 545 kts | 94° |
| 2026-05-05 17:50 | 39.08364 | 117.34065 | 34826 ft | 548 kts | 95° |
| 2026-05-05 17:51 | 39.07691 | 117.43782 | 34820 ft | 541 kts | 85° |
| 2026-05-05 17:51 | 39.07655 | 117.53476 | 34829 ft | 540 kts | 84° |
| 2026-05-05 17:52 | 39.07594 | 117.63131 | 34823 ft | 539 kts | 85° |
| 2026-05-05 17:52 | 39.07470 | 117.72778 | 34830 ft | 538 kts | 85° |
| 2026-05-05 17:53 | 39.07326 | 117.82399 | 34835 ft | 536 kts | 85° |
| 2026-05-05 17:53 | 39.07181 | 117.91984 | 34839 ft | 535 kts | 85° |
| 2026-05-05 17:54 | 39.07000 | 118.01500 | 34840 ft | 537 kts | 88° |
| 2026-05-05 17:54 | 39.05917 | 118.11079 | 34866 ft | 543 kts | 97° |
| 2026-05-05 17:55 | 39.04312 | 118.20610 | 34852 ft | 545 kts | 97° |
| 2026-05-05 17:55 | 39.02742 | 118.30173 | 34848 ft | 546 kts | 97° |
| 2026-05-05 17:56 | 39.01221 | 118.39709 | 34854 ft | 547 kts | 96° |
| 2026-05-05 17:56 | 38.99683 | 118.49298 | 34857 ft | 548 kts | 97° |
| 2026-05-05 17:57 | 38.98128 | 118.58913 | 34858 ft | 548 kts | 97° |
| 2026-05-05 17:57 | 38.96574 | 118.68502 | 34872 ft | 547 kts | 96° |
| 2026-05-05 17:58 | 38.95016 | 118.78068 | 34868 ft | 546 kts | 96° |
| 2026-05-05 17:58 | 38.93455 | 118.87606 | 34868 ft | 545 kts | 96° |
| 2026-05-05 17:59 | 38.91900 | 118.97053 | 34876 ft | 543 kts | 96° |
| 2026-05-05 17:59 | 38.90331 | 119.06525 | 34879 ft | 542 kts | 97° |
| 2026-05-05 18:00 | 38.88747 | 119.15967 | 34878 ft | 540 kts | 97° |
| 2026-05-05 18:00 | 38.87157 | 119.25391 | 34883 ft | 540 kts | 97° |
| 2026-05-05 18:01 | 38.85567 | 119.34788 | 34891 ft | 538 kts | 97° |
| 2026-05-05 18:01 | 38.83970 | 119.44182 | 34887 ft | 538 kts | 97° |
| 2026-05-05 18:02 | 38.82369 | 119.53549 | 34896 ft | 537 kts | 97° |
| 2026-05-05 18:02 | 38.80761 | 119.62912 | 34903 ft | 536 kts | 98° |
| 2026-05-05 18:03 | 38.79157 | 119.72197 | 34896 ft | 535 kts | 98° |
| 2026-05-05 18:03 | 38.77542 | 119.81510 | 34898 ft | 534 kts | 98° |
| 2026-05-05 18:04 | 38.75837 | 119.90767 | 34902 ft | 535 kts | 104° |
| 2026-05-05 18:04 | 38.73006 | 119.99619 | 34910 ft | 539 kts | 115° |
| 2026-05-05 18:05 | 38.69111 | 120.07756 | 34916 ft | 539 kts | 121° |
| 2026-05-05 18:05 | 38.65075 | 120.15849 | 34925 ft | 539 kts | 120° |
| 2026-05-05 18:06 | 38.61731 | 120.24375 | 34921 ft | 534 kts | 108° |
| 2026-05-05 18:06 | 38.59566 | 120.33397 | 34915 ft | 528 kts | 98° |
| 2026-05-05 18:07 | 38.58144 | 120.42599 | 34934 ft | 527 kts | 97° |
| 2026-05-05 18:07 | 38.56677 | 120.51769 | 34930 ft | 526 kts | 98° |
| 2026-05-05 18:08 | 38.55162 | 120.60922 | 34928 ft | 526 kts | 98° |
| 2026-05-05 18:08 | 38.53687 | 120.70002 | 34933 ft | 525 kts | 98° |
| 2026-05-05 18:09 | 38.52202 | 120.79128 | 34951 ft | 525 kts | 98° |
| 2026-05-05 18:09 | 38.50704 | 120.88263 | 34935 ft | 526 kts | 98° |
| 2026-05-05 18:10 | 38.49191 | 120.97418 | 34946 ft | 526 kts | 98° |
| 2026-05-05 18:10 | 38.47675 | 121.06553 | 34940 ft | 527 kts | 98° |
| 2026-05-05 18:11 | 38.46152 | 121.15702 | 34944 ft | 526 kts | 98° |
| 2026-05-05 18:11 | 38.44748 | 121.24858 | 34952 ft | 525 kts | 97° |
| 2026-05-05 18:12 | 38.43283 | 121.33995 | 34947 ft | 525 kts | 99° |
| 2026-05-05 18:12 | 38.41763 | 121.43080 | 34954 ft | 523 kts | 98° |
| 2026-05-05 18:13 | 38.40262 | 121.52147 | 34954 ft | 522 kts | 98° |
| 2026-05-05 18:13 | 38.38767 | 121.61126 | 34965 ft | 520 kts | 99° |
| 2026-05-05 18:14 | 38.37258 | 121.70143 | 34961 ft | 519 kts | 99° |
| 2026-05-05 18:14 | 38.35743 | 121.79150 | 34968 ft | 518 kts | 99° |
| 2026-05-05 18:15 | 38.34483 | 121.86609 | 34981 ft | 517 kts | 99° |
| 2026-05-05 18:15 | 38.32964 | 121.95560 | 34974 ft | 516 kts | 99° |
| 2026-05-05 18:16 | 38.31194 | 122.05934 | 34976 ft | 515 kts | 99° |
| 2026-05-05 18:16 | 38.29923 | 122.13355 | 34991 ft | 515 kts | 99° |
| 2026-05-05 18:17 | 38.28390 | 122.22264 | 34991 ft | 514 kts | 99° |
| 2026-05-05 18:17 | 38.26970 | 122.31182 | 35002 ft | 513 kts | 97° |
| 2026-05-05 18:18 | 38.25662 | 122.40103 | 34986 ft | 514 kts | 104° |
| 2026-05-05 18:18 | 38.24380 | 122.44359 | 34991 ft | 516 kts | 116° |
| 2026-05-05 18:18 | 38.22546 | 122.48274 | 35001 ft | 517 kts | 125° |
| 2026-05-05 18:19 | 38.17665 | 122.54964 | 35005 ft | 516 kts | 136° |
| 2026-05-05 18:19 | 38.12560 | 122.61317 | 35005 ft | 518 kts | 135° |
| 2026-05-05 18:20 | 38.07495 | 122.67866 | 35016 ft | 519 kts | 134° |
| 2026-05-05 18:20 | 38.02451 | 122.74434 | 35019 ft | 520 kts | 134° |
| 2026-05-05 18:21 | 37.97395 | 122.81002 | 35013 ft | 520 kts | 135° |
| 2026-05-05 18:21 | 37.92339 | 122.87549 | 35024 ft | 520 kts | 135° |
| 2026-05-05 18:22 | 37.87282 | 122.94080 | 35027 ft | 519 kts | 135° |
| 2026-05-05 18:22 | 37.82226 | 123.00597 | 35031 ft | 518 kts | 134° |
| 2026-05-05 18:23 | 37.77202 | 123.07058 | 35040 ft | 518 kts | 134° |
| 2026-05-05 18:23 | 37.72148 | 123.13547 | 35043 ft | 517 kts | 135° |
| 2026-05-05 18:24 | 37.67098 | 123.20017 | 35053 ft | 517 kts | 134° |
| 2026-05-05 18:24 | 37.62042 | 123.26483 | 35049 ft | 517 kts | 134° |
| 2026-05-05 18:25 | 37.57004 | 123.32968 | 35060 ft | 517 kts | 132° |
| 2026-05-05 18:25 | 37.52557 | 123.40068 | 35056 ft | 516 kts | 125° |
| 2026-05-05 18:26 | 37.48303 | 123.47346 | 35058 ft | 516 kts | 126° |
| 2026-05-05 18:26 | 37.44037 | 123.54557 | 35068 ft | 516 kts | 126° |
| 2026-05-05 18:27 | 37.39718 | 123.61779 | 35070 ft | 517 kts | 126° |
| 2026-05-05 18:27 | 37.35378 | 123.69011 | 35078 ft | 517 kts | 126° |
| 2026-05-05 18:28 | 37.28878 | 123.79825 | 35080 ft | 516 kts | 126° |
| 2026-05-05 18:28 | 37.24577 | 123.86966 | 35080 ft | 516 kts | 126° |
| 2026-05-05 18:29 | 37.20245 | 123.94153 | 35080 ft | 513 kts | 124° |
| 2026-05-05 18:29 | 37.18439 | 123.97994 | 35080 ft | 509 kts | 110° |
| 2026-05-05 18:29 | 37.17330 | 124.02176 | 35098 ft | 503 kts | 99° |
| 2026-05-05 18:30 | 37.16824 | 124.06494 | 35095 ft | 498 kts | 88° |
| 2026-05-05 18:30 | 37.16946 | 124.10789 | 35100 ft | 492 kts | 81° |
| 2026-05-05 18:30 | 37.17422 | 124.19373 | 35098 ft | 495 kts | 83° |
| 2026-05-05 18:31 | 37.17714 | 124.27958 | 35106 ft | 497 kts | 84° |
| 2026-05-05 18:31 | 37.17891 | 124.36637 | 35106 ft | 498 kts | 84° |
| 2026-05-05 18:32 | 37.18084 | 124.45313 | 35104 ft | 497 kts | 84° |
| 2026-05-05 18:32 | 37.18283 | 124.53989 | 35115 ft | 497 kts | 84° |
| 2026-05-05 18:33 | 37.18473 | 124.62641 | 35106 ft | 495 kts | 84° |
| 2026-05-05 18:33 | 37.18656 | 124.71223 | 35111 ft | 494 kts | 84° |
| 2026-05-05 18:34 | 37.18833 | 124.79830 | 35122 ft | 493 kts | 85° |
| 2026-05-05 18:34 | 37.19006 | 124.88428 | 35114 ft | 492 kts | 85° |
| 2026-05-05 18:35 | 37.19180 | 124.97017 | 35114 ft | 492 kts | 85° |
| 2026-05-05 18:35 | 37.19350 | 125.05592 | 35131 ft | 492 kts | 85° |
| 2026-05-05 18:36 | 37.19512 | 125.14169 | 35135 ft | 492 kts | 85° |
| 2026-05-05 18:36 | 37.19667 | 125.22759 | 35138 ft | 493 kts | 85° |
| 2026-05-05 18:37 | 37.19816 | 125.31375 | 35138 ft | 494 kts | 86° |
| 2026-05-05 18:37 | 37.19960 | 125.39935 | 35139 ft | 494 kts | 86° |
| 2026-05-05 18:38 | 37.20098 | 125.48553 | 35147 ft | 494 kts | 86° |
| 2026-05-05 18:38 | 37.20220 | 125.57188 | 35154 ft | 495 kts | 86° |
| 2026-05-05 18:39 | 37.20330 | 125.65827 | 35154 ft | 495 kts | 86° |
| 2026-05-05 18:39 | 37.20435 | 125.74469 | 35152 ft | 496 kts | 86° |
| 2026-05-05 18:40 | 37.20537 | 125.83127 | 35156 ft | 496 kts | 87° |
| 2026-05-05 18:40 | 37.20631 | 125.91766 | 35164 ft | 496 kts | 87° |
| 2026-05-05 18:41 | 37.20721 | 126.00419 | 35160 ft | 496 kts | 87° |
| 2026-05-05 18:41 | 37.20805 | 126.09021 | 35165 ft | 495 kts | 87° |
| 2026-05-05 18:42 | 37.20883 | 126.17664 | 35168 ft | 495 kts | 87° |
| 2026-05-05 18:42 | 37.20954 | 126.26313 | 35173 ft | 495 kts | 88° |
| 2026-05-05 18:43 | 37.21019 | 126.34949 | 35163 ft | 495 kts | 88° |
| 2026-05-05 18:43 | 37.21079 | 126.43545 | 35162 ft | 495 kts | 88° |
| 2026-05-05 18:44 | 37.21133 | 126.52188 | 35167 ft | 495 kts | 88° |
| 2026-05-05 18:44 | 37.21187 | 126.60842 | 35161 ft | 495 kts | 88° |
| 2026-05-05 18:45 | 37.21235 | 126.69483 | 35174 ft | 495 kts | 88° |
| 2026-05-05 18:45 | 37.21276 | 126.77864 | 35171 ft | 496 kts | 88° |
| 2026-05-05 18:46 | 37.21315 | 126.86521 | 35175 ft | 496 kts | 88° |
| 2026-05-05 18:46 | 37.21551 | 126.95145 | 35185 ft | 492 kts | 78° |
| 2026-05-05 18:47 | 37.22472 | 126.99206 | 35191 ft | 487 kts | 65° |
| 2026-05-05 18:47 | 37.24014 | 127.02968 | 35199 ft | 484 kts | 54° |
| 2026-05-05 18:47 | 37.28361 | 127.09321 | 35217 ft | 480 kts | 44° |
| 2026-05-05 18:48 | 37.32894 | 127.15521 | 35216 ft | 483 kts | 45° |
| 2026-05-05 18:48 | 37.37383 | 127.21830 | 35215 ft | 485 kts | 46° |
| 2026-05-05 18:49 | 37.41862 | 127.28185 | 35217 ft | 486 kts | 46° |
| 2026-05-05 18:49 | 37.46207 | 127.34510 | 35204 ft | 488 kts | 52° |
| 2026-05-05 18:50 | 37.49335 | 127.42100 | 35254 ft | 491 kts | 69° |
| 2026-05-05 18:50 | 37.50851 | 127.50521 | 35376 ft | 495 kts | 78° |
| 2026-05-05 18:51 | 37.52123 | 127.59094 | 35480 ft | 499 kts | 77° |
| 2026-05-05 18:51 | 37.53503 | 127.67690 | 35573 ft | 502 kts | 77° |
| 2026-05-05 18:52 | 37.54881 | 127.76322 | 35688 ft | 503 kts | 77° |
| 2026-05-05 18:52 | 37.56247 | 127.84986 | 35791 ft | 504 kts | 77° |
| 2026-05-05 18:53 | 37.57608 | 127.93662 | 35878 ft | 504 kts | 77° |
| 2026-05-05 18:53 | 37.58956 | 128.02284 | 35975 ft | 504 kts | 78° |
| 2026-05-05 18:54 | 37.60317 | 128.11022 | 36070 ft | 505 kts | 78° |
| 2026-05-05 18:54 | 37.61666 | 128.19720 | 36179 ft | 506 kts | 78° |
| 2026-05-05 18:55 | 37.63007 | 128.28379 | 36269 ft | 507 kts | 78° |
| 2026-05-05 18:55 | 37.64353 | 128.37122 | 36357 ft | 508 kts | 78° |
| 2026-05-05 18:56 | 37.65699 | 128.45906 | 36465 ft | 509 kts | 78° |
| 2026-05-05 18:56 | 37.67041 | 128.54703 | 36531 ft | 511 kts | 78° |
| 2026-05-05 18:57 | 37.68371 | 128.63565 | 36647 ft | 516 kts | 78° |
| 2026-05-05 18:57 | 37.69244 | 128.72526 | 36676 ft | 521 kts | 94° |
| 2026-05-05 18:58 | 37.68678 | 128.77035 | 36749 ft | 521 kts | 105° |
| 2026-05-05 18:58 | 37.67440 | 128.81341 | 36807 ft | 521 kts | 118° |
| 2026-05-05 18:58 | 37.63680 | 128.89115 | 36913 ft | 520 kts | 124° |
| 2026-05-05 18:59 | 37.59836 | 128.96830 | 37006 ft | 517 kts | 123° |
| 2026-05-05 18:59 | 37.56111 | 129.04514 | 37017 ft | 517 kts | 123° |
| 2026-05-05 19:00 | 37.52378 | 129.12278 | 37028 ft | 518 kts | 123° |
| 2026-05-05 19:00 | 37.48631 | 129.20048 | 37009 ft | 518 kts | 123° |
| 2026-05-05 19:01 | 37.44899 | 129.27757 | 37004 ft | 519 kts | 123° |
| 2026-05-05 19:01 | 37.41132 | 129.35525 | 36996 ft | 519 kts | 123° |
| 2026-05-05 19:02 | 37.37370 | 129.43286 | 37009 ft | 519 kts | 123° |
| 2026-05-05 19:02 | 37.33601 | 129.51043 | 37006 ft | 519 kts | 123° |
| 2026-05-05 19:03 | 37.29856 | 129.58735 | 37000 ft | 519 kts | 123° |
| 2026-05-05 19:03 | 37.26077 | 129.66479 | 37016 ft | 520 kts | 124° |
| 2026-05-05 19:04 | 37.22294 | 129.74208 | 37015 ft | 520 kts | 124° |
| 2026-05-05 19:04 | 37.18500 | 129.81948 | 36997 ft | 521 kts | 124° |
| 2026-05-05 19:05 | 37.15336 | 129.88380 | 37022 ft | 521 kts | 124° |
| 2026-05-05 19:05 | 37.11512 | 129.96104 | 37022 ft | 521 kts | 124° |
| 2026-05-05 19:06 | 37.07678 | 130.03834 | 37013 ft | 522 kts | 124° |
| 2026-05-05 19:06 | 37.03839 | 130.11568 | 37020 ft | 522 kts | 125° |
| 2026-05-05 19:07 | 37.00013 | 130.19233 | 37028 ft | 523 kts | 125° |
| 2026-05-05 19:07 | 36.96164 | 130.26969 | 37027 ft | 523 kts | 125° |
| 2026-05-05 19:08 | 36.92306 | 130.34697 | 37045 ft | 524 kts | 126° |
| 2026-05-05 19:08 | 36.88426 | 130.42429 | 37049 ft | 525 kts | 126° |
| 2026-05-05 19:09 | 36.84568 | 130.50109 | 37040 ft | 526 kts | 126° |
| 2026-05-05 19:09 | 36.80667 | 130.57859 | 37056 ft | 526 kts | 126° |
| 2026-05-05 19:10 | 36.76768 | 130.65586 | 37060 ft | 526 kts | 126° |
| 2026-05-05 19:10 | 36.72866 | 130.73298 | 37060 ft | 526 kts | 126° |
| 2026-05-05 19:11 | 36.68945 | 130.81023 | 37062 ft | 526 kts | 126° |
| 2026-05-05 19:11 | 36.65055 | 130.88675 | 37062 ft | 526 kts | 126° |
| 2026-05-05 19:12 | 36.61136 | 130.96370 | 37065 ft | 526 kts | 127° |
| 2026-05-05 19:12 | 36.57207 | 131.04065 | 37078 ft | 526 kts | 127° |
| 2026-05-05 19:13 | 36.53318 | 131.11666 | 37075 ft | 525 kts | 127° |
| 2026-05-05 19:13 | 36.49392 | 131.19328 | 37075 ft | 526 kts | 127° |
| 2026-05-05 19:14 | 36.45447 | 131.26999 | 37090 ft | 527 kts | 127° |
| 2026-05-05 19:14 | 36.41496 | 131.34671 | 37088 ft | 528 kts | 127° |
| 2026-05-05 19:15 | 36.38229 | 131.42821 | 37083 ft | 539 kts | 112° |
| 2026-05-05 19:15 | 36.36800 | 131.52022 | 37098 ft | 548 kts | 95° |
| 2026-05-05 19:16 | 36.36577 | 131.61513 | 37089 ft | 551 kts | 94° |
| 2026-05-05 19:16 | 36.36402 | 131.71024 | 37110 ft | 552 kts | 94° |
| 2026-05-05 19:17 | 36.36142 | 131.80560 | 37087 ft | 553 kts | 95° |
| 2026-05-05 19:17 | 36.35828 | 131.90051 | 37107 ft | 554 kts | 95° |
| 2026-05-05 19:18 | 36.35498 | 131.99597 | 37085 ft | 554 kts | 95° |
| 2026-05-05 19:18 | 36.35165 | 132.09162 | 37107 ft | 554 kts | 95° |
| 2026-05-05 19:19 | 36.34829 | 132.18724 | 37107 ft | 555 kts | 95° |
| 2026-05-05 19:19 | 36.34485 | 132.28298 | 37124 ft | 556 kts | 95° |
| 2026-05-05 19:20 | 36.34134 | 132.37867 | 37116 ft | 556 kts | 96° |
| 2026-05-05 19:20 | 36.33775 | 132.47447 | 37113 ft | 556 kts | 96° |
| 2026-05-05 19:21 | 36.33410 | 132.56968 | 37119 ft | 556 kts | 96° |
| 2026-05-05 19:21 | 36.33034 | 132.66554 | 37116 ft | 557 kts | 96° |
| 2026-05-05 19:22 | 36.32649 | 132.76164 | 37130 ft | 559 kts | 96° |
| 2026-05-05 19:22 | 36.32256 | 132.85816 | 37133 ft | 560 kts | 96° |
| 2026-05-05 19:23 | 36.31854 | 132.95492 | 37133 ft | 562 kts | 96° |
| 2026-05-05 19:23 | 36.31443 | 133.05184 | 37131 ft | 563 kts | 96° |
| 2026-05-05 19:24 | 36.31025 | 133.14882 | 37132 ft | 563 kts | 97° |
| 2026-05-05 19:24 | 36.30602 | 133.24516 | 37141 ft | 563 kts | 97° |
| 2026-05-05 19:25 | 36.30167 | 133.34198 | 37131 ft | 562 kts | 97° |
| 2026-05-05 19:25 | 36.29725 | 133.43886 | 37136 ft | 562 kts | 97° |
| 2026-05-05 19:26 | 36.29276 | 133.53566 | 37135 ft | 563 kts | 97° |
| 2026-05-05 19:26 | 36.28819 | 133.63247 | 37143 ft | 563 kts | 97° |
| 2026-05-05 19:27 | 36.28354 | 133.72942 | 37143 ft | 563 kts | 97° |
| 2026-05-05 19:27 | 36.27872 | 133.82651 | 37148 ft | 565 kts | 97° |
| 2026-05-05 19:28 | 36.27368 | 133.92335 | 37150 ft | 566 kts | 98° |
| 2026-05-05 19:28 | 36.26856 | 134.02085 | 37119 ft | 567 kts | 98° |
| 2026-05-05 19:29 | 36.26339 | 134.11855 | 37147 ft | 568 kts | 98° |
| 2026-05-05 19:29 | 36.25830 | 134.21637 | 37141 ft | 570 kts | 98° |
| 2026-05-05 19:30 | 36.25316 | 134.31446 | 37146 ft | 570 kts | 98° |
| 2026-05-05 19:30 | 36.24795 | 134.41205 | 37138 ft | 570 kts | 98° |
| 2026-05-05 19:31 | 36.24729 | 134.51084 | 37164 ft | 576 kts | 89° |
| 2026-05-05 19:31 | 36.25933 | 134.60933 | 37157 ft | 580 kts | 80° |
| 2026-05-05 19:32 | 36.27662 | 134.70708 | 37156 ft | 581 kts | 79° |
| 2026-05-05 19:32 | 36.29362 | 134.80439 | 37160 ft | 581 kts | 80° |
| 2026-05-05 19:33 | 36.31012 | 134.90259 | 37139 ft | 582 kts | 80° |
| 2026-05-05 19:33 | 36.32635 | 135.00111 | 37160 ft | 583 kts | 81° |
| 2026-05-05 19:34 | 36.34253 | 135.09979 | 37165 ft | 584 kts | 81° |
| 2026-05-05 19:35 | 36.36671 | 135.24767 | 37164 ft | 586 kts | 81° |
| 2026-05-05 19:35 | 36.38281 | 135.34672 | 37167 ft | 586 kts | 81° |
| 2026-05-05 19:36 | 36.39886 | 135.44607 | 37168 ft | 586 kts | 81° |
| 2026-05-05 19:36 | 36.41483 | 135.54541 | 37163 ft | 586 kts | 81° |
| 2026-05-05 19:37 | 36.43062 | 135.64430 | 37172 ft | 587 kts | 81° |
| 2026-05-05 19:37 | 36.44648 | 135.74411 | 37177 ft | 588 kts | 81° |
| 2026-05-05 19:38 | 36.46224 | 135.84386 | 37170 ft | 589 kts | 81° |
| 2026-05-05 19:38 | 36.47793 | 135.94373 | 37171 ft | 589 kts | 81° |
| 2026-05-05 19:39 | 36.49353 | 136.04363 | 37171 ft | 588 kts | 81° |
| 2026-05-05 19:39 | 36.50894 | 136.14286 | 37159 ft | 588 kts | 81° |
| 2026-05-05 19:40 | 36.52446 | 136.24337 | 37162 ft | 589 kts | 81° |
| 2026-05-05 19:40 | 36.53974 | 136.34289 | 37160 ft | 590 kts | 81° |
| 2026-05-05 19:41 | 36.55505 | 136.44322 | 37160 ft | 590 kts | 81° |
| 2026-05-05 19:41 | 36.57030 | 136.54378 | 37171 ft | 591 kts | 81° |
| 2026-05-05 19:42 | 36.58547 | 136.64433 | 37181 ft | 591 kts | 81° |
| 2026-05-05 19:42 | 36.60047 | 136.74444 | 37165 ft | 592 kts | 82° |
| 2026-05-05 19:43 | 36.61551 | 136.84537 | 37176 ft | 593 kts | 82° |
| 2026-05-05 19:43 | 36.63046 | 136.94628 | 37161 ft | 594 kts | 82° |
| 2026-05-05 19:44 | 36.64517 | 137.04762 | 37162 ft | 595 kts | 82° |
| 2026-05-05 19:44 | 36.65964 | 137.14944 | 37153 ft | 596 kts | 82° |
| 2026-05-05 19:45 | 36.67401 | 137.25107 | 37175 ft | 596 kts | 82° |
| 2026-05-05 19:45 | 36.68828 | 137.35222 | 37146 ft | 596 kts | 82° |
| 2026-05-05 19:46 | 36.70257 | 137.45422 | 37178 ft | 597 kts | 82° |
| 2026-05-05 19:46 | 36.71674 | 137.55619 | 37212 ft | 597 kts | 82° |
| 2026-05-05 19:47 | 36.73100 | 137.65836 | 37191 ft | 597 kts | 82° |
| 2026-05-05 19:47 | 36.74497 | 137.76058 | 37203 ft | 599 kts | 82° |
| 2026-05-05 19:48 | 36.75873 | 137.86150 | 37214 ft | 593 kts | 83° |
| 2026-05-05 19:48 | 36.77250 | 137.96312 | 37253 ft | 594 kts | 83° |
| 2026-05-05 19:49 | 36.78624 | 138.06491 | 37274 ft | 596 kts | 83° |
| 2026-05-05 19:49 | 36.80014 | 138.16704 | 37238 ft | 598 kts | 82° |
| 2026-05-05 19:50 | 36.81435 | 138.26943 | 37255 ft | 599 kts | 82° |
| 2026-05-05 19:50 | 36.82849 | 138.37223 | 37237 ft | 601 kts | 82° |
| 2026-05-05 19:51 | 36.84242 | 138.47465 | 37254 ft | 601 kts | 82° |
| 2026-05-05 19:51 | 36.85616 | 138.57769 | 37217 ft | 601 kts | 83° |
| 2026-05-05 19:51 | 36.86255 | 138.62933 | 37109 ft | 603 kts | 82° |
| 2026-05-05 19:52 | 36.86960 | 138.68075 | 37235 ft | 600 kts | 82° |
| 2026-05-05 19:52 | 36.88110 | 138.76625 | 37239 ft | 600 kts | 82° |
| 2026-05-05 19:53 | 36.89653 | 138.88565 | 37322 ft | 596 kts | 83° |
| 2026-05-05 19:53 | 36.90966 | 138.98685 | 37269 ft | 595 kts | 82° |
| 2026-05-05 19:54 | 36.92073 | 139.07229 | 37271 ft | 595 kts | 83° |
| 2026-05-05 19:54 | 36.93393 | 139.17471 | 37273 ft | 598 kts | 82° |
| 2026-05-05 19:55 | 36.94726 | 139.27695 | 37279 ft | 601 kts | 82° |
| 2026-05-05 19:55 | 36.96063 | 139.38028 | 37294 ft | 601 kts | 83° |
| 2026-05-05 19:56 | 36.97383 | 139.48371 | 37264 ft | 603 kts | 83° |
| 2026-05-05 19:56 | 36.98691 | 139.58745 | 37270 ft | 604 kts | 83° |
| 2026-05-05 19:57 | 36.99984 | 139.69148 | 37283 ft | 606 kts | 83° |
| 2026-05-05 19:57 | 37.01272 | 139.79564 | 37240 ft | 602 kts | 83° |
| 2026-05-05 19:57 | 37.01900 | 139.84706 | 36813 ft | 595 kts | 83° |
| 2026-05-05 19:58 | 37.02518 | 139.89797 | 36449 ft | 587 kts | 83° |
| 2026-05-05 19:58 | 37.03128 | 139.94796 | 36131 ft | 578 kts | 83° |
| 2026-05-05 19:58 | 37.03715 | 139.99646 | 35694 ft | 563 kts | 83° |
| 2026-05-05 19:58 | 37.04304 | 140.04462 | 34941 ft | 556 kts | 83° |
| 2026-05-05 19:59 | 37.04904 | 140.09230 | 34034 ft | 553 kts | 83° |
| 2026-05-05 19:59 | 37.05508 | 140.13995 | 33290 ft | 552 kts | 83° |
| 2026-05-05 19:59 | 37.06105 | 140.18714 | 32906 ft | 546 kts | 83° |
| 2026-05-05 19:59 | 37.06690 | 140.23390 | 32478 ft | 542 kts | 83° |
| 2026-05-05 20:00 | 37.07263 | 140.28039 | 32062 ft | 537 kts | 83° |
| 2026-05-05 20:00 | 37.07812 | 140.32637 | 31655 ft | 532 kts | 83° |
| 2026-05-05 20:00 | 37.08351 | 140.37206 | 31248 ft | 528 kts | 84° |
| 2026-05-05 20:00 | 37.08884 | 140.41730 | 30843 ft | 523 kts | 83° |
| 2026-05-05 20:01 | 37.09414 | 140.46220 | 30460 ft | 519 kts | 83° |
| 2026-05-05 20:01 | 37.09940 | 140.50671 | 29992 ft | 514 kts | 83° |
| 2026-05-05 20:01 | 37.10283 | 140.55082 | 29492 ft | 504 kts | 95° |
| 2026-05-05 20:01 | 37.09841 | 140.59296 | 29122 ft | 487 kts | 110° |
| 2026-05-05 20:02 | 37.08739 | 140.63239 | 28665 ft | 472 kts | 123° |
| 2026-05-05 20:02 | 37.07101 | 140.66694 | 28271 ft | 450 kts | 135° |
| 2026-05-05 20:02 | 37.05194 | 140.69729 | 27852 ft | 440 kts | 136° |
| 2026-05-05 20:02 | 37.03344 | 140.72759 | 27439 ft | 433 kts | 137° |
| 2026-05-05 20:03 | 37.01244 | 140.75293 | 26997 ft | 407 kts | 156° |
| 2026-05-05 20:03 | 36.98772 | 140.76721 | 26625 ft | 381 kts | 174° |
| 2026-05-05 20:03 | 36.96211 | 140.77266 | 26150 ft | 367 kts | 185° |
| 2026-05-05 20:03 | 36.93692 | 140.77245 | 25677 ft | 357 kts | 194° |
| 2026-05-05 20:04 | 36.91331 | 140.76532 | 25213 ft | 345 kts | 203° |
| 2026-05-05 20:04 | 36.89077 | 140.75638 | 24785 ft | 344 kts | 203° |
| 2026-05-05 20:04 | 36.86801 | 140.74727 | 24322 ft | 344 kts | 202° |
| 2026-05-05 20:04 | 36.84492 | 140.73811 | 23874 ft | 344 kts | 202° |
| 2026-05-05 20:05 | 36.82238 | 140.72927 | 23352 ft | 344 kts | 201° |
| 2026-05-05 20:05 | 36.79947 | 140.72038 | 22848 ft | 343 kts | 201° |
| 2026-05-05 20:05 | 36.77664 | 140.71159 | 22400 ft | 341 kts | 201° |
| 2026-05-05 20:05 | 36.75401 | 140.70291 | 21958 ft | 340 kts | 200° |
| 2026-05-05 20:06 | 36.73147 | 140.69428 | 21532 ft | 338 kts | 200° |
| 2026-05-05 20:06 | 36.70905 | 140.68571 | 21082 ft | 336 kts | 200° |
| 2026-05-05 20:06 | 36.68666 | 140.67717 | 20660 ft | 335 kts | 199° |
| 2026-05-05 20:06 | 36.66444 | 140.66869 | 20230 ft | 333 kts | 199° |
| 2026-05-05 20:07 | 36.64227 | 140.66023 | 19803 ft | 332 kts | 199° |
| 2026-05-05 20:07 | 36.62024 | 140.65183 | 19382 ft | 331 kts | 199° |
| 2026-05-05 20:07 | 36.59825 | 140.64344 | 18963 ft | 330 kts | 198° |
| 2026-05-05 20:07 | 36.57658 | 140.63520 | 18525 ft | 329 kts | 198° |
| 2026-05-05 20:08 | 36.55471 | 140.62690 | 18056 ft | 328 kts | 198° |
| 2026-05-05 20:08 | 36.53291 | 140.61862 | 17595 ft | 327 kts | 198° |
| 2026-05-05 20:08 | 36.51119 | 140.61035 | 17196 ft | 324 kts | 198° |
| 2026-05-05 20:08 | 36.48968 | 140.60215 | 16782 ft | 322 kts | 198° |
| 2026-05-05 20:09 | 36.46831 | 140.59401 | 16365 ft | 321 kts | 197° |
| 2026-05-05 20:09 | 36.44698 | 140.58588 | 15967 ft | 319 kts | 197° |
| 2026-05-05 20:09 | 36.42575 | 140.57779 | 15562 ft | 318 kts | 197° |
| 2026-05-05 20:09 | 36.40460 | 140.56975 | 15156 ft | 317 kts | 197° |
| 2026-05-05 20:10 | 36.38351 | 140.56173 | 14753 ft | 317 kts | 197° |
| 2026-05-05 20:10 | 36.36268 | 140.55383 | 14356 ft | 316 kts | 197° |
| 2026-05-05 20:10 | 36.34150 | 140.54761 | 13923 ft | 311 kts | 182° |
| 2026-05-05 20:10 | 36.32017 | 140.55152 | 13374 ft | 315 kts | 160° |
| 2026-05-05 20:11 | 36.30094 | 140.56462 | 12893 ft | 318 kts | 142° |
| 2026-05-05 20:11 | 36.28522 | 140.58395 | 12499 ft | 317 kts | 134° |
| 2026-05-05 20:11 | 36.27046 | 140.60426 | 12131 ft | 315 kts | 134° |
| 2026-05-05 20:11 | 36.25580 | 140.62417 | 11872 ft | 310 kts | 134° |
| 2026-05-05 20:12 | 36.24142 | 140.64342 | 11419 ft | 301 kts | 135° |
| 2026-05-05 20:12 | 36.22710 | 140.66242 | 10698 ft | 303 kts | 136° |
| 2026-05-05 20:12 | 36.21279 | 140.68142 | 10153 ft | 299 kts | 135° |
| 2026-05-05 20:12 | 36.19853 | 140.69960 | 9667 ft | 289 kts | 143° |
| 2026-05-05 20:13 | 36.18139 | 140.71076 | 9092 ft | 279 kts | 168° |
| 2026-05-05 20:13 | 36.16243 | 140.71115 | 8539 ft | 274 kts | 194° |
| 2026-05-05 20:13 | 36.14509 | 140.70179 | 8184 ft | 271 kts | 213° |
| 2026-05-05 20:13 | 36.13142 | 140.68581 | 7791 ft | 272 kts | 230° |
| 2026-05-05 20:14 | 36.11987 | 140.66736 | 7480 ft | 270 kts | 231° |
| 2026-05-05 20:14 | 36.10855 | 140.64894 | 7219 ft | 267 kts | 231° |
| 2026-05-05 20:14 | 36.09731 | 140.63074 | 6908 ft | 266 kts | 231° |
| 2026-05-05 20:14 | 36.08605 | 140.61261 | 6580 ft | 265 kts | 230° |
| 2026-05-05 20:15 | 36.07496 | 140.59486 | 6293 ft | 263 kts | 230° |
| 2026-05-05 20:15 | 36.06383 | 140.57710 | 6022 ft | 259 kts | 230° |
| 2026-05-05 20:15 | 36.05281 | 140.55958 | 5748 ft | 257 kts | 230° |
| 2026-05-05 20:15 | 36.04196 | 140.54237 | 5597 ft | 249 kts | 230° |
| 2026-05-05 20:16 | 36.03155 | 140.52588 | 5513 ft | 238 kts | 230° |
| 2026-05-05 20:16 | 36.02154 | 140.51003 | 5390 ft | 229 kts | 230° |
| 2026-05-05 20:16 | 36.01190 | 140.49480 | 5228 ft | 222 kts | 230° |
| 2026-05-05 20:16 | 36.00254 | 140.48004 | 5022 ft | 216 kts | 230° |
| 2026-05-05 20:17 | 35.99340 | 140.46550 | 4629 ft | 216 kts | 233° |
| 2026-05-05 20:17 | 35.98773 | 140.44849 | 4295 ft | 216 kts | 256° |
| 2026-05-05 20:17 | 35.98602 | 140.43036 | 4125 ft | 209 kts | 261° |
| 2026-05-05 20:17 | 35.98502 | 140.41293 | 4037 ft | 199 kts | 262° |
| 2026-05-05 20:18 | 35.98414 | 140.39592 | 3985 ft | 198 kts | 262° |
| 2026-05-05 20:18 | 35.98330 | 140.37896 | 3984 ft | 198 kts | 262° |
| 2026-05-05 20:18 | 35.98219 | 140.36202 | 3978 ft | 195 kts | 253° |
| 2026-05-05 20:18 | 35.97766 | 140.34637 | 3998 ft | 194 kts | 243° |
| 2026-05-05 20:19 | 35.97202 | 140.33097 | 3848 ft | 200 kts | 242° |
| 2026-05-05 20:19 | 35.96614 | 140.31559 | 3551 ft | 198 kts | 236° |
| 2026-05-05 20:19 | 35.95752 | 140.30276 | 3235 ft | 192 kts | 223° |
| 2026-05-05 20:19 | 35.94744 | 140.29297 | 3095 ft | 182 kts | 200° |
| 2026-05-05 20:20 | 35.93472 | 140.29270 | 3016 ft | 190 kts | 170° |
| 2026-05-05 20:20 | 35.92190 | 140.29747 | 2758 ft | 194 kts | 163° |
| 2026-05-05 20:20 | 35.90963 | 140.30391 | 2495 ft | 187 kts | 160° |
| 2026-05-05 20:20 | 35.89839 | 140.31071 | 2251 ft | 171 kts | 156° |
| 2026-05-05 20:21 | 35.88858 | 140.31763 | 2038 ft | 154 kts | 155° |
| 2026-05-05 20:21 | 35.87991 | 140.32392 | 1833 ft | 137 kts | 155° |
| 2026-05-05 20:21 | 35.87168 | 140.32988 | 1685 ft | 138 kts | 155° |
| 2026-05-05 20:21 | 35.86342 | 140.33587 | 1467 ft | 137 kts | 155° |
| 2026-05-05 20:22 | 35.85533 | 140.34175 | 1315 ft | 137 kts | 154° |
| 2026-05-05 20:22 | 35.84714 | 140.34769 | 1115 ft | 136 kts | 154° |
| 2026-05-05 20:22 | 35.83898 | 140.35361 | 960 ft | 137 kts | 153° |
| 2026-05-05 20:22 | 35.83070 | 140.35955 | 788 ft | 140 kts | 151° |
| 2026-05-05 20:23 | 35.82215 | 140.36577 | 601 ft | 144 kts | 150° |
| 2026-05-05 20:23 | 35.81358 | 140.37207 | 422 ft | 142 kts | 150° |
| 2026-05-05 20:23 | 35.80514 | 140.37818 | 208 ft | 140 kts | 150° |
| 2026-05-05 20:23 | 35.79736 | 140.38375 | 149 ft | 114 kts | 149° |
| 2026-05-05 20:24 | 35.79185 | 140.38774 | 150 ft | 70 kts | 149° |
| 2026-05-05 20:24 | 35.78897 | 140.38980 | 147 ft | 26 kts | 150° |
| 2026-05-05 20:24 | 35.78780 | 140.39043 | 147 ft | 18 kts | 161° |
| 2026-05-05 20:24 | 35.78659 | 140.39073 | 147 ft | 18 kts | 174° |
| 2026-05-05 20:25 | 35.78534 | 140.39094 | 148 ft | 18 kts | 169° |
| 2026-05-05 20:25 | 35.78412 | 140.39127 | 148 ft | 18 kts | 166° |
| 2026-05-05 20:25 | 35.78294 | 140.39162 | 148 ft | 15 kts | 167° |
| 2026-05-05 20:25 | 35.78195 | 140.39191 | 148 ft | 14 kts | 173° |
| 2026-05-05 20:26 | 35.78115 | 140.39145 | 148 ft | 13 kts | 226° |
| 2026-05-05 20:26 | 35.78031 | 140.39136 | 148 ft | 13 kts | 156° |
| 2026-05-05 20:26 | 35.77963 | 140.39208 | 148 ft | 13 kts | 121° |
| 2026-05-05 20:26 | 35.77917 | 140.39314 | 148 ft | 14 kts | 117° |
| 2026-05-05 20:27 | 35.77873 | 140.39422 | 148 ft | 15 kts | 115° |
| 2026-05-05 20:27 | 35.77798 | 140.39519 | 148 ft | 17 kts | 148° |
| 2026-05-05 20:27 | 35.77693 | 140.39598 | 148 ft | 19 kts | 149° |
| 2026-05-05 20:27 | 35.77577 | 140.39684 | 149 ft | 20 kts | 149° |
| 2026-05-05 20:28 | 35.77451 | 140.39777 | 149 ft | 22 kts | 148° |
| 2026-05-05 20:28 | 35.77315 | 140.39874 | 149 ft | 23 kts | 150° |
| 2026-05-05 20:28 | 35.77180 | 140.39966 | 149 ft | 18 kts | 151° |
| 2026-05-05 20:28 | 35.77055 | 140.39986 | 149 ft | 19 kts | 195° |
| 2026-05-05 20:29 | 35.76935 | 140.39925 | 149 ft | 19 kts | 205° |
| 2026-05-05 20:29 | 35.76856 | 140.39839 | 149 ft | 16 kts | 241° |
| 2026-05-05 20:29 | 35.76770 | 140.39751 | 149 ft | 17 kts | 215° |
| 2026-05-05 20:29 | 35.76667 | 140.39658 | 149 ft | 19 kts | 210° |
| 2026-05-05 20:30 | 35.76537 | 140.39581 | 149 ft | 22 kts | 204° |
| 2026-05-05 20:30 | 35.76391 | 140.39501 | 149 ft | 23 kts | 204° |
| 2026-05-05 20:30 | 35.76244 | 140.39421 | 149 ft | 23 kts | 204° |
| 2026-05-05 20:30 | 35.76097 | 140.39341 | 149 ft | 23 kts | 204° |
| 2026-05-05 20:31 | 35.75950 | 140.39260 | 149 ft | 23 kts | 204° |
| 2026-05-05 20:31 | 35.75817 | 140.39149 | 148 ft | 23 kts | 229° |
| 2026-05-05 20:31 | 35.75738 | 140.38995 | 149 ft | 19 kts | 240° |
| 2026-05-05 20:31 | 35.75671 | 140.38853 | 149 ft | 19 kts | 239° |
| 2026-05-05 20:32 | 35.75611 | 140.38720 | 149 ft | 17 kts | 248° |
| 2026-05-05 20:32 | 35.75599 | 140.38584 | 149 ft | 15 kts | 282° |
| 2026-05-05 20:32 | 35.75668 | 140.38492 | 149 ft | 15 kts | 328° |
| 2026-05-05 20:32 | 35.75759 | 140.38426 | 149 ft | 15 kts | 329° |
| 2026-05-05 20:33 | 35.75851 | 140.38360 | 149 ft | 15 kts | 329° |
| 2026-05-05 20:33 | 35.75942 | 140.38294 | 149 ft | 15 kts | 329° |
| 2026-05-05 20:33 | 35.76033 | 140.38269 | 149 ft | 11 kts | 32° |
| 2026-05-05 20:33 | 35.76033 | 140.38344 | 149 ft | 9 kts | 99° |
| 2026-05-05 20:34 | 35.76053 | 140.38416 | 149 ft | 8 kts | 62° |
| 2026-05-05 20:34 | 35.76070 | 140.38452 | 150 ft | 0 kts | 60° |